<?xml version="1.0" encoding="UTF-8" standalone="no" ?>
<gpx xmlns="http://www.topografix.com/GPX/1/1" xmlns:xsi="http://www.w3.org/2001/XMLSchema-instance" xsi:schemaLocation="http://www.topografix.com/GPX/1/1 http://www.topografix.com/GPX/1/1/gpx.xsd" version="1.1" creator="VisuGPX - https://www.visugpx.com">
  <metadata>
    <name>04-D-Estoublon</name>
    <desc><![CDATA[04-D-Estoublon : gorges de Trévans
2020-09-27]]></desc>
  </metadata>
  <trk>
    <name><![CDATA[2020-09-27-D-estoublon]]></name>
    <trkseg>
      <trkpt lat="43.94888" lon="6.22191">
        <ele>592.6</ele>
        <time>2020-09-27T07:43:00Z</time>
      </trkpt>
      <trkpt lat="43.94888" lon="6.22192">
        <ele>594</ele>
        <time>2020-09-27T07:43:01Z</time>
      </trkpt>
      <trkpt lat="43.94885" lon="6.22196">
        <ele>621.2</ele>
        <time>2020-09-27T07:44:34Z</time>
      </trkpt>
      <trkpt lat="43.94888" lon="6.22191">
        <ele>622.1</ele>
        <time>2020-09-27T07:47:21Z</time>
      </trkpt>
      <trkpt lat="43.94883" lon="6.22192">
        <ele>622.4</ele>
        <time>2020-09-27T07:50:21Z</time>
      </trkpt>
      <trkpt lat="43.94878" lon="6.22192">
        <ele>622.4</ele>
        <time>2020-09-27T07:50:27Z</time>
      </trkpt>
      <trkpt lat="43.94874" lon="6.22193">
        <ele>622.3</ele>
        <time>2020-09-27T07:50:33Z</time>
      </trkpt>
      <trkpt lat="43.94869" lon="6.22195">
        <ele>622.2</ele>
        <time>2020-09-27T07:50:39Z</time>
      </trkpt>
      <trkpt lat="43.94864" lon="6.22196">
        <ele>622.1</ele>
        <time>2020-09-27T07:50:44Z</time>
      </trkpt>
      <trkpt lat="43.94859" lon="6.22198">
        <ele>621.7</ele>
        <time>2020-09-27T07:50:49Z</time>
      </trkpt>
      <trkpt lat="43.94854" lon="6.222">
        <ele>621.4</ele>
        <time>2020-09-27T07:50:54Z</time>
      </trkpt>
      <trkpt lat="43.94849" lon="6.222">
        <ele>620.9</ele>
        <time>2020-09-27T07:51:03Z</time>
      </trkpt>
      <trkpt lat="43.94844" lon="6.22203">
        <ele>620.3</ele>
        <time>2020-09-27T07:51:08Z</time>
      </trkpt>
      <trkpt lat="43.9484" lon="6.22205">
        <ele>619.9</ele>
        <time>2020-09-27T07:51:13Z</time>
      </trkpt>
      <trkpt lat="43.94836" lon="6.22211">
        <ele>619.4</ele>
        <time>2020-09-27T07:51:18Z</time>
      </trkpt>
      <trkpt lat="43.94834" lon="6.22217">
        <ele>619.1</ele>
        <time>2020-09-27T07:51:24Z</time>
      </trkpt>
      <trkpt lat="43.94832" lon="6.22223">
        <ele>618.8</ele>
        <time>2020-09-27T07:51:29Z</time>
      </trkpt>
      <trkpt lat="43.94828" lon="6.22228">
        <ele>618.7</ele>
        <time>2020-09-27T07:51:34Z</time>
      </trkpt>
      <trkpt lat="43.94824" lon="6.22233">
        <ele>618.6</ele>
        <time>2020-09-27T07:51:39Z</time>
      </trkpt>
      <trkpt lat="43.9482" lon="6.22237">
        <ele>618.1</ele>
        <time>2020-09-27T07:51:46Z</time>
      </trkpt>
      <trkpt lat="43.94817" lon="6.22242">
        <ele>617.8</ele>
        <time>2020-09-27T07:51:52Z</time>
      </trkpt>
      <trkpt lat="43.94814" lon="6.22248">
        <ele>617.2</ele>
        <time>2020-09-27T07:51:58Z</time>
      </trkpt>
      <trkpt lat="43.94811" lon="6.22254">
        <ele>616.7</ele>
        <time>2020-09-27T07:52:04Z</time>
      </trkpt>
      <trkpt lat="43.94809" lon="6.22261">
        <ele>616.3</ele>
        <time>2020-09-27T07:52:09Z</time>
      </trkpt>
      <trkpt lat="43.94808" lon="6.22268">
        <ele>616</ele>
        <time>2020-09-27T07:52:14Z</time>
      </trkpt>
      <trkpt lat="43.94808" lon="6.22275">
        <ele>615.5</ele>
        <time>2020-09-27T07:52:21Z</time>
      </trkpt>
      <trkpt lat="43.94807" lon="6.22282">
        <ele>614.4</ele>
        <time>2020-09-27T07:55:05Z</time>
      </trkpt>
      <trkpt lat="43.94808" lon="6.22289">
        <ele>614.1</ele>
        <time>2020-09-27T07:55:11Z</time>
      </trkpt>
      <trkpt lat="43.94808" lon="6.22295">
        <ele>613.9</ele>
        <time>2020-09-27T07:55:16Z</time>
      </trkpt>
      <trkpt lat="43.94808" lon="6.22302">
        <ele>613.5</ele>
        <time>2020-09-27T07:55:21Z</time>
      </trkpt>
      <trkpt lat="43.94806" lon="6.22309">
        <ele>613</ele>
        <time>2020-09-27T07:55:26Z</time>
      </trkpt>
      <trkpt lat="43.94804" lon="6.22316">
        <ele>612.8</ele>
        <time>2020-09-27T07:55:31Z</time>
      </trkpt>
      <trkpt lat="43.94802" lon="6.22323">
        <ele>612.7</ele>
        <time>2020-09-27T07:55:36Z</time>
      </trkpt>
      <trkpt lat="43.94801" lon="6.2233">
        <ele>612.7</ele>
        <time>2020-09-27T07:55:41Z</time>
      </trkpt>
      <trkpt lat="43.94802" lon="6.22338">
        <ele>612.6</ele>
        <time>2020-09-27T07:55:46Z</time>
      </trkpt>
      <trkpt lat="43.94804" lon="6.22344">
        <ele>612.3</ele>
        <time>2020-09-27T07:55:50Z</time>
      </trkpt>
      <trkpt lat="43.94805" lon="6.2235">
        <ele>612</ele>
        <time>2020-09-27T07:55:54Z</time>
      </trkpt>
      <trkpt lat="43.94805" lon="6.22357">
        <ele>611.7</ele>
        <time>2020-09-27T07:55:58Z</time>
      </trkpt>
      <trkpt lat="43.94806" lon="6.22363">
        <ele>611.4</ele>
        <time>2020-09-27T07:56:02Z</time>
      </trkpt>
      <trkpt lat="43.94807" lon="6.2237">
        <ele>611.2</ele>
        <time>2020-09-27T07:56:06Z</time>
      </trkpt>
      <trkpt lat="43.94808" lon="6.22377">
        <ele>611.1</ele>
        <time>2020-09-27T07:56:10Z</time>
      </trkpt>
      <trkpt lat="43.94807" lon="6.22384">
        <ele>611.1</ele>
        <time>2020-09-27T07:56:14Z</time>
      </trkpt>
      <trkpt lat="43.94808" lon="6.22392">
        <ele>610.9</ele>
        <time>2020-09-27T07:56:19Z</time>
      </trkpt>
      <trkpt lat="43.94808" lon="6.22398">
        <ele>610.9</ele>
        <time>2020-09-27T07:56:23Z</time>
      </trkpt>
      <trkpt lat="43.94807" lon="6.22405">
        <ele>610.8</ele>
        <time>2020-09-27T07:56:27Z</time>
      </trkpt>
      <trkpt lat="43.94806" lon="6.22413">
        <ele>610.7</ele>
        <time>2020-09-27T07:56:32Z</time>
      </trkpt>
      <trkpt lat="43.94806" lon="6.22419">
        <ele>610.7</ele>
        <time>2020-09-27T07:56:36Z</time>
      </trkpt>
      <trkpt lat="43.94805" lon="6.22425">
        <ele>610.7</ele>
        <time>2020-09-27T07:56:40Z</time>
      </trkpt>
      <trkpt lat="43.94805" lon="6.22432">
        <ele>610.7</ele>
        <time>2020-09-27T07:56:44Z</time>
      </trkpt>
      <trkpt lat="43.94803" lon="6.22438">
        <ele>610.7</ele>
        <time>2020-09-27T07:56:48Z</time>
      </trkpt>
      <trkpt lat="43.94802" lon="6.22445">
        <ele>610.7</ele>
        <time>2020-09-27T07:56:53Z</time>
      </trkpt>
      <trkpt lat="43.94801" lon="6.22451">
        <ele>610.8</ele>
        <time>2020-09-27T07:56:58Z</time>
      </trkpt>
      <trkpt lat="43.94799" lon="6.22459">
        <ele>610.9</ele>
        <time>2020-09-27T07:57:03Z</time>
      </trkpt>
      <trkpt lat="43.94798" lon="6.22466">
        <ele>610.9</ele>
        <time>2020-09-27T07:57:08Z</time>
      </trkpt>
      <trkpt lat="43.94797" lon="6.22473">
        <ele>611.1</ele>
        <time>2020-09-27T07:57:13Z</time>
      </trkpt>
      <trkpt lat="43.94795" lon="6.2248">
        <ele>611.1</ele>
        <time>2020-09-27T07:57:18Z</time>
      </trkpt>
      <trkpt lat="43.94793" lon="6.22487">
        <ele>611.2</ele>
        <time>2020-09-27T07:57:23Z</time>
      </trkpt>
      <trkpt lat="43.94791" lon="6.22494">
        <ele>611.5</ele>
        <time>2020-09-27T07:57:28Z</time>
      </trkpt>
      <trkpt lat="43.9479" lon="6.225">
        <ele>611.6</ele>
        <time>2020-09-27T07:57:32Z</time>
      </trkpt>
      <trkpt lat="43.94788" lon="6.22507">
        <ele>611.8</ele>
        <time>2020-09-27T07:57:37Z</time>
      </trkpt>
      <trkpt lat="43.94785" lon="6.22514">
        <ele>612.2</ele>
        <time>2020-09-27T07:57:42Z</time>
      </trkpt>
      <trkpt lat="43.94782" lon="6.2252">
        <ele>612.5</ele>
        <time>2020-09-27T07:57:47Z</time>
      </trkpt>
      <trkpt lat="43.94779" lon="6.22526">
        <ele>612.8</ele>
        <time>2020-09-27T07:57:52Z</time>
      </trkpt>
      <trkpt lat="43.94776" lon="6.22532">
        <ele>613.1</ele>
        <time>2020-09-27T07:57:57Z</time>
      </trkpt>
      <trkpt lat="43.94772" lon="6.22538">
        <ele>613.3</ele>
        <time>2020-09-27T07:58:02Z</time>
      </trkpt>
      <trkpt lat="43.94768" lon="6.22543">
        <ele>613.4</ele>
        <time>2020-09-27T07:58:07Z</time>
      </trkpt>
      <trkpt lat="43.94765" lon="6.22547">
        <ele>613.5</ele>
        <time>2020-09-27T07:58:11Z</time>
      </trkpt>
      <trkpt lat="43.94761" lon="6.22551">
        <ele>613.6</ele>
        <time>2020-09-27T07:58:15Z</time>
      </trkpt>
      <trkpt lat="43.94758" lon="6.22556">
        <ele>613.7</ele>
        <time>2020-09-27T07:58:19Z</time>
      </trkpt>
      <trkpt lat="43.94755" lon="6.22561">
        <ele>613.7</ele>
        <time>2020-09-27T07:58:23Z</time>
      </trkpt>
      <trkpt lat="43.94751" lon="6.22565">
        <ele>613.8</ele>
        <time>2020-09-27T07:58:28Z</time>
      </trkpt>
      <trkpt lat="43.94746" lon="6.22564">
        <ele>614</ele>
        <time>2020-09-27T07:58:33Z</time>
      </trkpt>
      <trkpt lat="43.94743" lon="6.2256">
        <ele>614.3</ele>
        <time>2020-09-27T07:58:44Z</time>
      </trkpt>
      <trkpt lat="43.94738" lon="6.22561">
        <ele>614.5</ele>
        <time>2020-09-27T07:58:48Z</time>
      </trkpt>
      <trkpt lat="43.94735" lon="6.22556">
        <ele>614.7</ele>
        <time>2020-09-27T07:58:53Z</time>
      </trkpt>
      <trkpt lat="43.94732" lon="6.22551">
        <ele>614.9</ele>
        <time>2020-09-27T07:58:58Z</time>
      </trkpt>
      <trkpt lat="43.94727" lon="6.22549">
        <ele>615.1</ele>
        <time>2020-09-27T07:59:03Z</time>
      </trkpt>
      <trkpt lat="43.94725" lon="6.22555">
        <ele>615.9</ele>
        <time>2020-09-27T07:59:21Z</time>
      </trkpt>
      <trkpt lat="43.94722" lon="6.22561">
        <ele>616</ele>
        <time>2020-09-27T07:59:27Z</time>
      </trkpt>
      <trkpt lat="43.94718" lon="6.22565">
        <ele>616</ele>
        <time>2020-09-27T07:59:32Z</time>
      </trkpt>
      <trkpt lat="43.94714" lon="6.22567">
        <ele>615.9</ele>
        <time>2020-09-27T07:59:37Z</time>
      </trkpt>
      <trkpt lat="43.9471" lon="6.22572">
        <ele>616</ele>
        <time>2020-09-27T07:59:42Z</time>
      </trkpt>
      <trkpt lat="43.94707" lon="6.22576">
        <ele>616.2</ele>
        <time>2020-09-27T07:59:48Z</time>
      </trkpt>
      <trkpt lat="43.94703" lon="6.22581">
        <ele>616.1</ele>
        <time>2020-09-27T07:59:57Z</time>
      </trkpt>
      <trkpt lat="43.947" lon="6.22585">
        <ele>616.1</ele>
        <time>2020-09-27T08:00:09Z</time>
      </trkpt>
      <trkpt lat="43.94697" lon="6.22591">
        <ele>616.1</ele>
        <time>2020-09-27T08:00:19Z</time>
      </trkpt>
      <trkpt lat="43.94695" lon="6.22597">
        <ele>616</ele>
        <time>2020-09-27T08:00:24Z</time>
      </trkpt>
      <trkpt lat="43.94694" lon="6.22604">
        <ele>616</ele>
        <time>2020-09-27T08:00:29Z</time>
      </trkpt>
      <trkpt lat="43.94693" lon="6.22611">
        <ele>616</ele>
        <time>2020-09-27T08:00:34Z</time>
      </trkpt>
      <trkpt lat="43.94691" lon="6.22618">
        <ele>616</ele>
        <time>2020-09-27T08:00:39Z</time>
      </trkpt>
      <trkpt lat="43.94691" lon="6.22625">
        <ele>616</ele>
        <time>2020-09-27T08:00:44Z</time>
      </trkpt>
      <trkpt lat="43.9469" lon="6.22631">
        <ele>616.2</ele>
        <time>2020-09-27T08:00:49Z</time>
      </trkpt>
      <trkpt lat="43.9469" lon="6.22639">
        <ele>616.4</ele>
        <time>2020-09-27T08:00:54Z</time>
      </trkpt>
      <trkpt lat="43.9469" lon="6.22646">
        <ele>616.8</ele>
        <time>2020-09-27T08:00:58Z</time>
      </trkpt>
      <trkpt lat="43.94693" lon="6.22651">
        <ele>617.1</ele>
        <time>2020-09-27T08:01:03Z</time>
      </trkpt>
      <trkpt lat="43.94698" lon="6.22655">
        <ele>617.3</ele>
        <time>2020-09-27T08:01:07Z</time>
      </trkpt>
      <trkpt lat="43.94702" lon="6.22662">
        <ele>615.7</ele>
        <time>2020-09-27T08:01:12Z</time>
      </trkpt>
      <trkpt lat="43.94706" lon="6.22664">
        <ele>617.5</ele>
        <time>2020-09-27T08:01:17Z</time>
      </trkpt>
      <trkpt lat="43.94705" lon="6.22671">
        <ele>617.6</ele>
        <time>2020-09-27T08:01:21Z</time>
      </trkpt>
      <trkpt lat="43.94706" lon="6.22677">
        <ele>617.7</ele>
        <time>2020-09-27T08:01:25Z</time>
      </trkpt>
      <trkpt lat="43.94708" lon="6.22684">
        <ele>617.8</ele>
        <time>2020-09-27T08:01:31Z</time>
      </trkpt>
      <trkpt lat="43.94711" lon="6.22689">
        <ele>618.1</ele>
        <time>2020-09-27T08:01:37Z</time>
      </trkpt>
      <trkpt lat="43.94714" lon="6.22695">
        <ele>618.3</ele>
        <time>2020-09-27T08:01:42Z</time>
      </trkpt>
      <trkpt lat="43.94716" lon="6.22702">
        <ele>618.4</ele>
        <time>2020-09-27T08:01:47Z</time>
      </trkpt>
      <trkpt lat="43.94719" lon="6.22707">
        <ele>618.6</ele>
        <time>2020-09-27T08:01:51Z</time>
      </trkpt>
      <trkpt lat="43.94724" lon="6.2271">
        <ele>618.7</ele>
        <time>2020-09-27T08:01:55Z</time>
      </trkpt>
      <trkpt lat="43.94726" lon="6.22721">
        <ele>620.8</ele>
        <time>2020-09-27T08:02:04Z</time>
      </trkpt>
      <trkpt lat="43.94727" lon="6.22731">
        <ele>621.4</ele>
        <time>2020-09-27T08:02:11Z</time>
      </trkpt>
      <trkpt lat="43.94733" lon="6.22748">
        <ele>622.8</ele>
        <time>2020-09-27T08:02:26Z</time>
      </trkpt>
      <trkpt lat="43.94737" lon="6.22757">
        <ele>620</ele>
        <time>2020-09-27T08:02:35Z</time>
      </trkpt>
      <trkpt lat="43.94741" lon="6.22761">
        <ele>620.9</ele>
        <time>2020-09-27T08:02:42Z</time>
      </trkpt>
      <trkpt lat="43.94746" lon="6.22762">
        <ele>621</ele>
        <time>2020-09-27T08:02:46Z</time>
      </trkpt>
      <trkpt lat="43.94752" lon="6.22765">
        <ele>624.3</ele>
        <time>2020-09-27T08:02:52Z</time>
      </trkpt>
      <trkpt lat="43.94752" lon="6.22765">
        <ele>624.3</ele>
        <time>2020-09-27T08:02:53Z</time>
      </trkpt>
      <trkpt lat="43.94761" lon="6.22768">
        <ele>621.3</ele>
        <time>2020-09-27T08:02:59Z</time>
      </trkpt>
      <trkpt lat="43.94766" lon="6.22774">
        <ele>621.3</ele>
        <time>2020-09-27T08:03:04Z</time>
      </trkpt>
      <trkpt lat="43.9477" lon="6.22779">
        <ele>621.5</ele>
        <time>2020-09-27T08:03:07Z</time>
      </trkpt>
      <trkpt lat="43.94774" lon="6.22784">
        <ele>621.6</ele>
        <time>2020-09-27T08:03:11Z</time>
      </trkpt>
      <trkpt lat="43.94773" lon="6.2279">
        <ele>621.7</ele>
        <time>2020-09-27T08:03:15Z</time>
      </trkpt>
      <trkpt lat="43.94775" lon="6.22797">
        <ele>632.4</ele>
        <time>2020-09-27T08:03:19Z</time>
      </trkpt>
      <trkpt lat="43.94779" lon="6.22802">
        <ele>633.9</ele>
        <time>2020-09-27T08:03:24Z</time>
      </trkpt>
      <trkpt lat="43.94781" lon="6.22808">
        <ele>634.7</ele>
        <time>2020-09-27T08:03:28Z</time>
      </trkpt>
      <trkpt lat="43.94783" lon="6.22812">
        <ele>635.4</ele>
        <time>2020-09-27T08:03:33Z</time>
      </trkpt>
      <trkpt lat="43.94785" lon="6.22819">
        <ele>622.7</ele>
        <time>2020-09-27T08:03:37Z</time>
      </trkpt>
      <trkpt lat="43.94789" lon="6.22824">
        <ele>622.9</ele>
        <time>2020-09-27T08:03:42Z</time>
      </trkpt>
      <trkpt lat="43.9479" lon="6.22825">
        <ele>638.1</ele>
        <time>2020-09-27T08:03:45Z</time>
      </trkpt>
      <trkpt lat="43.94791" lon="6.22827">
        <ele>638.8</ele>
        <time>2020-09-27T08:03:46Z</time>
      </trkpt>
      <trkpt lat="43.94792" lon="6.22831">
        <ele>639.1</ele>
        <time>2020-09-27T08:03:51Z</time>
      </trkpt>
      <trkpt lat="43.94794" lon="6.22841">
        <ele>623.1</ele>
        <time>2020-09-27T08:03:57Z</time>
      </trkpt>
      <trkpt lat="43.94792" lon="6.22848">
        <ele>623.5</ele>
        <time>2020-09-27T08:04:02Z</time>
      </trkpt>
      <trkpt lat="43.94789" lon="6.22854">
        <ele>623.9</ele>
        <time>2020-09-27T08:04:07Z</time>
      </trkpt>
      <trkpt lat="43.94786" lon="6.2286">
        <ele>624.2</ele>
        <time>2020-09-27T08:04:12Z</time>
      </trkpt>
      <trkpt lat="43.94784" lon="6.22866">
        <ele>624.4</ele>
        <time>2020-09-27T08:04:17Z</time>
      </trkpt>
      <trkpt lat="43.94782" lon="6.22872">
        <ele>624.6</ele>
        <time>2020-09-27T08:04:21Z</time>
      </trkpt>
      <trkpt lat="43.94779" lon="6.22877">
        <ele>624.8</ele>
        <time>2020-09-27T08:04:26Z</time>
      </trkpt>
      <trkpt lat="43.94776" lon="6.22883">
        <ele>625</ele>
        <time>2020-09-27T08:04:31Z</time>
      </trkpt>
      <trkpt lat="43.94773" lon="6.22889">
        <ele>625.4</ele>
        <time>2020-09-27T08:04:36Z</time>
      </trkpt>
      <trkpt lat="43.94771" lon="6.22896">
        <ele>625.8</ele>
        <time>2020-09-27T08:04:41Z</time>
      </trkpt>
      <trkpt lat="43.94769" lon="6.22903">
        <ele>626.1</ele>
        <time>2020-09-27T08:04:46Z</time>
      </trkpt>
      <trkpt lat="43.94767" lon="6.22909">
        <ele>626.3</ele>
        <time>2020-09-27T08:04:51Z</time>
      </trkpt>
      <trkpt lat="43.94765" lon="6.22915">
        <ele>626.6</ele>
        <time>2020-09-27T08:04:56Z</time>
      </trkpt>
      <trkpt lat="43.9476" lon="6.2292">
        <ele>626.8</ele>
        <time>2020-09-27T08:05:01Z</time>
      </trkpt>
      <trkpt lat="43.94757" lon="6.22925">
        <ele>627</ele>
        <time>2020-09-27T08:05:05Z</time>
      </trkpt>
      <trkpt lat="43.94755" lon="6.22931">
        <ele>627.3</ele>
        <time>2020-09-27T08:05:10Z</time>
      </trkpt>
      <trkpt lat="43.94753" lon="6.22938">
        <ele>627.6</ele>
        <time>2020-09-27T08:05:16Z</time>
      </trkpt>
      <trkpt lat="43.94751" lon="6.22944">
        <ele>627.8</ele>
        <time>2020-09-27T08:05:21Z</time>
      </trkpt>
      <trkpt lat="43.9475" lon="6.2295">
        <ele>628.2</ele>
        <time>2020-09-27T08:05:26Z</time>
      </trkpt>
      <trkpt lat="43.94748" lon="6.22957">
        <ele>628.5</ele>
        <time>2020-09-27T08:05:32Z</time>
      </trkpt>
      <trkpt lat="43.94748" lon="6.22964">
        <ele>628.7</ele>
        <time>2020-09-27T08:05:36Z</time>
      </trkpt>
      <trkpt lat="43.94746" lon="6.2297">
        <ele>629</ele>
        <time>2020-09-27T08:05:40Z</time>
      </trkpt>
      <trkpt lat="43.94745" lon="6.22979">
        <ele>629.4</ele>
        <time>2020-09-27T08:05:46Z</time>
      </trkpt>
      <trkpt lat="43.94743" lon="6.22986">
        <ele>629.8</ele>
        <time>2020-09-27T08:05:51Z</time>
      </trkpt>
      <trkpt lat="43.94741" lon="6.22993">
        <ele>630.2</ele>
        <time>2020-09-27T08:05:56Z</time>
      </trkpt>
      <trkpt lat="43.94739" lon="6.22999">
        <ele>630.5</ele>
        <time>2020-09-27T08:06:01Z</time>
      </trkpt>
      <trkpt lat="43.94737" lon="6.23005">
        <ele>630.7</ele>
        <time>2020-09-27T08:06:06Z</time>
      </trkpt>
      <trkpt lat="43.94736" lon="6.23012">
        <ele>631</ele>
        <time>2020-09-27T08:06:10Z</time>
      </trkpt>
      <trkpt lat="43.94736" lon="6.23019">
        <ele>631.5</ele>
        <time>2020-09-27T08:06:16Z</time>
      </trkpt>
      <trkpt lat="43.94739" lon="6.23024">
        <ele>631.9</ele>
        <time>2020-09-27T08:06:21Z</time>
      </trkpt>
      <trkpt lat="43.94753" lon="6.23068">
        <ele>634.4</ele>
        <time>2020-09-27T08:07:03Z</time>
      </trkpt>
      <trkpt lat="43.94756" lon="6.23072">
        <ele>634.7</ele>
        <time>2020-09-27T08:07:13Z</time>
      </trkpt>
      <trkpt lat="43.94758" lon="6.23078">
        <ele>634.8</ele>
        <time>2020-09-27T08:07:18Z</time>
      </trkpt>
      <trkpt lat="43.94759" lon="6.23085">
        <ele>635.1</ele>
        <time>2020-09-27T08:07:25Z</time>
      </trkpt>
      <trkpt lat="43.94763" lon="6.2309">
        <ele>635.3</ele>
        <time>2020-09-27T08:07:31Z</time>
      </trkpt>
      <trkpt lat="43.94763" lon="6.23097">
        <ele>635.4</ele>
        <time>2020-09-27T08:07:35Z</time>
      </trkpt>
      <trkpt lat="43.94761" lon="6.23103">
        <ele>635.5</ele>
        <time>2020-09-27T08:07:41Z</time>
      </trkpt>
      <trkpt lat="43.94761" lon="6.23112">
        <ele>652.4</ele>
        <time>2020-09-27T08:07:46Z</time>
      </trkpt>
      <trkpt lat="43.94759" lon="6.2312">
        <ele>652.2</ele>
        <time>2020-09-27T08:07:50Z</time>
      </trkpt>
      <trkpt lat="43.94757" lon="6.23129">
        <ele>652.3</ele>
        <time>2020-09-27T08:07:54Z</time>
      </trkpt>
      <trkpt lat="43.94756" lon="6.23133">
        <ele>652.4</ele>
        <time>2020-09-27T08:08:00Z</time>
      </trkpt>
      <trkpt lat="43.94754" lon="6.2314">
        <ele>651.9</ele>
        <time>2020-09-27T08:08:06Z</time>
      </trkpt>
      <trkpt lat="43.94751" lon="6.23151">
        <ele>651.9</ele>
        <time>2020-09-27T08:08:16Z</time>
      </trkpt>
      <trkpt lat="43.94751" lon="6.23158">
        <ele>634.9</ele>
        <time>2020-09-27T08:08:23Z</time>
      </trkpt>
      <trkpt lat="43.94748" lon="6.23163">
        <ele>634.9</ele>
        <time>2020-09-27T08:08:26Z</time>
      </trkpt>
      <trkpt lat="43.94747" lon="6.2317">
        <ele>635</ele>
        <time>2020-09-27T08:08:29Z</time>
      </trkpt>
      <trkpt lat="43.94747" lon="6.23176">
        <ele>635.1</ele>
        <time>2020-09-27T08:08:33Z</time>
      </trkpt>
      <trkpt lat="43.94745" lon="6.23183">
        <ele>635.3</ele>
        <time>2020-09-27T08:08:37Z</time>
      </trkpt>
      <trkpt lat="43.94742" lon="6.23188">
        <ele>635.6</ele>
        <time>2020-09-27T08:08:41Z</time>
      </trkpt>
      <trkpt lat="43.94738" lon="6.23192">
        <ele>635.8</ele>
        <time>2020-09-27T08:08:44Z</time>
      </trkpt>
      <trkpt lat="43.94734" lon="6.23196">
        <ele>635.9</ele>
        <time>2020-09-27T08:08:47Z</time>
      </trkpt>
      <trkpt lat="43.9473" lon="6.23201">
        <ele>635.9</ele>
        <time>2020-09-27T08:08:53Z</time>
      </trkpt>
      <trkpt lat="43.94727" lon="6.23206">
        <ele>635.8</ele>
        <time>2020-09-27T08:08:58Z</time>
      </trkpt>
      <trkpt lat="43.94723" lon="6.23208">
        <ele>636</ele>
        <time>2020-09-27T08:09:03Z</time>
      </trkpt>
      <trkpt lat="43.94718" lon="6.23209">
        <ele>636</ele>
        <time>2020-09-27T08:09:19Z</time>
      </trkpt>
      <trkpt lat="43.94717" lon="6.23227">
        <ele>660.8</ele>
        <time>2020-09-27T08:11:07Z</time>
      </trkpt>
      <trkpt lat="43.94714" lon="6.23241">
        <ele>663.3</ele>
        <time>2020-09-27T08:12:38Z</time>
      </trkpt>
      <trkpt lat="43.94715" lon="6.23252">
        <ele>666.6</ele>
        <time>2020-09-27T08:12:51Z</time>
      </trkpt>
      <trkpt lat="43.94713" lon="6.23266">
        <ele>671.1</ele>
        <time>2020-09-27T08:13:10Z</time>
      </trkpt>
      <trkpt lat="43.9471" lon="6.23275">
        <ele>673</ele>
        <time>2020-09-27T08:13:20Z</time>
      </trkpt>
      <trkpt lat="43.94699" lon="6.23287">
        <ele>672.1</ele>
        <time>2020-09-27T08:14:06Z</time>
      </trkpt>
      <trkpt lat="43.94694" lon="6.23301">
        <ele>675.4</ele>
        <time>2020-09-27T08:14:42Z</time>
      </trkpt>
      <trkpt lat="43.94685" lon="6.23314">
        <ele>675.8</ele>
        <time>2020-09-27T08:15:24Z</time>
      </trkpt>
      <trkpt lat="43.94688" lon="6.23338">
        <ele>685.7</ele>
        <time>2020-09-27T08:16:29Z</time>
      </trkpt>
      <trkpt lat="43.94686" lon="6.23363">
        <ele>689.3</ele>
        <time>2020-09-27T08:17:28Z</time>
      </trkpt>
      <trkpt lat="43.94684" lon="6.23382">
        <ele>691.5</ele>
        <time>2020-09-27T08:18:12Z</time>
      </trkpt>
      <trkpt lat="43.94694" lon="6.2339">
        <ele>696.8</ele>
        <time>2020-09-27T08:18:53Z</time>
      </trkpt>
      <trkpt lat="43.94704" lon="6.23396">
        <ele>701.2</ele>
        <time>2020-09-27T08:19:29Z</time>
      </trkpt>
      <trkpt lat="43.94713" lon="6.23402">
        <ele>705.7</ele>
        <time>2020-09-27T08:20:06Z</time>
      </trkpt>
      <trkpt lat="43.9473" lon="6.23416">
        <ele>713</ele>
        <time>2020-09-27T08:21:10Z</time>
      </trkpt>
      <trkpt lat="43.94737" lon="6.23436">
        <ele>715.7</ele>
        <time>2020-09-27T08:22:02Z</time>
      </trkpt>
      <trkpt lat="43.94745" lon="6.23459">
        <ele>719</ele>
        <time>2020-09-27T08:23:01Z</time>
      </trkpt>
      <trkpt lat="43.94751" lon="6.23478">
        <ele>721.8</ele>
        <time>2020-09-27T08:23:51Z</time>
      </trkpt>
      <trkpt lat="43.94756" lon="6.23493">
        <ele>724.2</ele>
        <time>2020-09-27T08:24:29Z</time>
      </trkpt>
      <trkpt lat="43.94759" lon="6.23502">
        <ele>725.4</ele>
        <time>2020-09-27T08:24:52Z</time>
      </trkpt>
      <trkpt lat="43.94763" lon="6.23517">
        <ele>726.6</ele>
        <time>2020-09-27T08:25:29Z</time>
      </trkpt>
      <trkpt lat="43.94766" lon="6.23532">
        <ele>727.2</ele>
        <time>2020-09-27T08:26:06Z</time>
      </trkpt>
      <trkpt lat="43.94764" lon="6.23547">
        <ele>726</ele>
        <time>2020-09-27T08:26:41Z</time>
      </trkpt>
      <trkpt lat="43.94766" lon="6.23569">
        <ele>725.7</ele>
        <time>2020-09-27T08:27:32Z</time>
      </trkpt>
      <trkpt lat="43.9476" lon="6.23595">
        <ele>721.3</ele>
        <time>2020-09-27T08:28:36Z</time>
      </trkpt>
      <trkpt lat="43.94758" lon="6.2361">
        <ele>718.2</ele>
        <time>2020-09-27T08:29:11Z</time>
      </trkpt>
      <trkpt lat="43.94764" lon="6.23631">
        <ele>716</ele>
        <time>2020-09-27T08:30:03Z</time>
      </trkpt>
      <trkpt lat="43.94768" lon="6.23648">
        <ele>713.2</ele>
        <time>2020-09-27T08:30:44Z</time>
      </trkpt>
      <trkpt lat="43.94777" lon="6.23666">
        <ele>710.1</ele>
        <time>2020-09-27T08:31:37Z</time>
      </trkpt>
      <trkpt lat="43.94784" lon="6.23675">
        <ele>708.3</ele>
        <time>2020-09-27T08:32:08Z</time>
      </trkpt>
      <trkpt lat="43.94789" lon="6.23693">
        <ele>703.6</ele>
        <time>2020-09-27T08:32:54Z</time>
      </trkpt>
      <trkpt lat="43.94792" lon="6.237">
        <ele>701.7</ele>
        <time>2020-09-27T08:33:14Z</time>
      </trkpt>
      <trkpt lat="43.94793" lon="6.23726">
        <ele>694.5</ele>
        <time>2020-09-27T08:34:18Z</time>
      </trkpt>
      <trkpt lat="43.94792" lon="6.23742">
        <ele>689.9</ele>
        <time>2020-09-27T08:34:57Z</time>
      </trkpt>
      <trkpt lat="43.94793" lon="6.23767">
        <ele>686.4</ele>
        <time>2020-09-27T08:35:56Z</time>
      </trkpt>
      <trkpt lat="43.94796" lon="6.23779">
        <ele>685.9</ele>
        <time>2020-09-27T08:36:23Z</time>
      </trkpt>
      <trkpt lat="43.94808" lon="6.238">
        <ele>686.6</ele>
        <time>2020-09-27T08:37:27Z</time>
      </trkpt>
      <trkpt lat="43.94821" lon="6.2381">
        <ele>688.7</ele>
        <time>2020-09-27T08:38:15Z</time>
      </trkpt>
      <trkpt lat="43.94828" lon="6.23821">
        <ele>689.9</ele>
        <time>2020-09-27T08:38:49Z</time>
      </trkpt>
      <trkpt lat="43.94835" lon="6.23845">
        <ele>691.7</ele>
        <time>2020-09-27T08:39:48Z</time>
      </trkpt>
      <trkpt lat="43.94829" lon="6.23865">
        <ele>689.7</ele>
        <time>2020-09-27T08:40:39Z</time>
      </trkpt>
      <trkpt lat="43.94822" lon="6.23874">
        <ele>687.9</ele>
        <time>2020-09-27T08:41:11Z</time>
      </trkpt>
      <trkpt lat="43.94823" lon="6.23889">
        <ele>688.2</ele>
        <time>2020-09-27T08:41:47Z</time>
      </trkpt>
      <trkpt lat="43.94825" lon="6.23906">
        <ele>688.5</ele>
        <time>2020-09-27T08:42:25Z</time>
      </trkpt>
      <trkpt lat="43.94819" lon="6.23919">
        <ele>687.3</ele>
        <time>2020-09-27T08:43:01Z</time>
      </trkpt>
      <trkpt lat="43.9481" lon="6.23919">
        <ele>685.6</ele>
        <time>2020-09-27T08:43:30Z</time>
      </trkpt>
      <trkpt lat="43.94792" lon="6.23911">
        <ele>681.6</ele>
        <time>2020-09-27T08:44:30Z</time>
      </trkpt>
      <trkpt lat="43.94786" lon="6.23897">
        <ele>680.1</ele>
        <time>2020-09-27T08:45:10Z</time>
      </trkpt>
      <trkpt lat="43.94783" lon="6.23882">
        <ele>665.5</ele>
        <time>2020-09-27T08:46:05Z</time>
      </trkpt>
      <trkpt lat="43.94778" lon="6.23881">
        <ele>666.2</ele>
        <time>2020-09-27T08:46:11Z</time>
      </trkpt>
      <trkpt lat="43.94775" lon="6.23876">
        <ele>667</ele>
        <time>2020-09-27T08:46:17Z</time>
      </trkpt>
      <trkpt lat="43.9477" lon="6.23871">
        <ele>667.7</ele>
        <time>2020-09-27T08:46:22Z</time>
      </trkpt>
      <trkpt lat="43.94764" lon="6.23867">
        <ele>668.2</ele>
        <time>2020-09-27T08:46:26Z</time>
      </trkpt>
      <trkpt lat="43.9476" lon="6.23866">
        <ele>668.6</ele>
        <time>2020-09-27T08:46:29Z</time>
      </trkpt>
      <trkpt lat="43.94755" lon="6.23866">
        <ele>669.2</ele>
        <time>2020-09-27T08:46:34Z</time>
      </trkpt>
      <trkpt lat="43.9475" lon="6.23864">
        <ele>670</ele>
        <time>2020-09-27T08:46:40Z</time>
      </trkpt>
      <trkpt lat="43.94732" lon="6.23837">
        <ele>678.9</ele>
        <time>2020-09-27T08:47:51Z</time>
      </trkpt>
      <trkpt lat="43.94728" lon="6.23835">
        <ele>679.5</ele>
        <time>2020-09-27T08:47:55Z</time>
      </trkpt>
      <trkpt lat="43.94723" lon="6.23833">
        <ele>680</ele>
        <time>2020-09-27T08:47:59Z</time>
      </trkpt>
      <trkpt lat="43.94719" lon="6.23829">
        <ele>680.5</ele>
        <time>2020-09-27T08:48:03Z</time>
      </trkpt>
      <trkpt lat="43.94715" lon="6.23824">
        <ele>680.9</ele>
        <time>2020-09-27T08:48:06Z</time>
      </trkpt>
      <trkpt lat="43.9471" lon="6.23818">
        <ele>681.2</ele>
        <time>2020-09-27T08:48:10Z</time>
      </trkpt>
      <trkpt lat="43.94707" lon="6.23813">
        <ele>681.6</ele>
        <time>2020-09-27T08:48:13Z</time>
      </trkpt>
      <trkpt lat="43.94704" lon="6.23807">
        <ele>682.1</ele>
        <time>2020-09-27T08:48:19Z</time>
      </trkpt>
      <trkpt lat="43.94681" lon="6.238">
        <ele>669.4</ele>
        <time>2020-09-27T08:49:10Z</time>
      </trkpt>
      <trkpt lat="43.94662" lon="6.23783">
        <ele>669.1</ele>
        <time>2020-09-27T08:49:54Z</time>
      </trkpt>
      <trkpt lat="43.94643" lon="6.23764">
        <ele>675.4</ele>
        <time>2020-09-27T08:50:42Z</time>
      </trkpt>
      <trkpt lat="43.94622" lon="6.23743">
        <ele>680.5</ele>
        <time>2020-09-27T08:51:33Z</time>
      </trkpt>
      <trkpt lat="43.94612" lon="6.23705">
        <ele>685.1</ele>
        <time>2020-09-27T08:52:31Z</time>
      </trkpt>
      <trkpt lat="43.94617" lon="6.23688">
        <ele>685.1</ele>
        <time>2020-09-27T08:52:56Z</time>
      </trkpt>
      <trkpt lat="43.94629" lon="6.23669">
        <ele>685</ele>
        <time>2020-09-27T08:53:31Z</time>
      </trkpt>
      <trkpt lat="43.94631" lon="6.23649">
        <ele>686.2</ele>
        <time>2020-09-27T08:54:00Z</time>
      </trkpt>
      <trkpt lat="43.94628" lon="6.23636">
        <ele>687.3</ele>
        <time>2020-09-27T08:54:18Z</time>
      </trkpt>
      <trkpt lat="43.94619" lon="6.23636">
        <ele>688</ele>
        <time>2020-09-27T08:54:37Z</time>
      </trkpt>
      <trkpt lat="43.94613" lon="6.23646">
        <ele>687.9</ele>
        <time>2020-09-27T08:54:55Z</time>
      </trkpt>
      <trkpt lat="43.94606" lon="6.23653">
        <ele>688</ele>
        <time>2020-09-27T08:55:12Z</time>
      </trkpt>
      <trkpt lat="43.94599" lon="6.23669">
        <ele>715.2</ele>
        <time>2020-09-27T08:56:07Z</time>
      </trkpt>
      <trkpt lat="43.94595" lon="6.23671">
        <ele>715.7</ele>
        <time>2020-09-27T08:56:12Z</time>
      </trkpt>
      <trkpt lat="43.94591" lon="6.23675">
        <ele>716.9</ele>
        <time>2020-09-27T08:56:23Z</time>
      </trkpt>
      <trkpt lat="43.94589" lon="6.23681">
        <ele>717.5</ele>
        <time>2020-09-27T08:56:29Z</time>
      </trkpt>
      <trkpt lat="43.94585" lon="6.23686">
        <ele>718.1</ele>
        <time>2020-09-27T08:56:35Z</time>
      </trkpt>
      <trkpt lat="43.94584" lon="6.23692">
        <ele>718.6</ele>
        <time>2020-09-27T08:56:40Z</time>
      </trkpt>
      <trkpt lat="43.94583" lon="6.23699">
        <ele>719.3</ele>
        <time>2020-09-27T08:56:46Z</time>
      </trkpt>
      <trkpt lat="43.94572" lon="6.23724">
        <ele>723.5</ele>
        <time>2020-09-27T08:57:24Z</time>
      </trkpt>
      <trkpt lat="43.94568" lon="6.23727">
        <ele>724.2</ele>
        <time>2020-09-27T08:57:30Z</time>
      </trkpt>
      <trkpt lat="43.94564" lon="6.23732">
        <ele>725</ele>
        <time>2020-09-27T08:57:37Z</time>
      </trkpt>
      <trkpt lat="43.94561" lon="6.23736">
        <ele>725.9</ele>
        <time>2020-09-27T08:57:44Z</time>
      </trkpt>
      <trkpt lat="43.94557" lon="6.2374">
        <ele>727.1</ele>
        <time>2020-09-27T08:57:54Z</time>
      </trkpt>
      <trkpt lat="43.94553" lon="6.23745">
        <ele>727.9</ele>
        <time>2020-09-27T08:58:01Z</time>
      </trkpt>
      <trkpt lat="43.94549" lon="6.23749">
        <ele>728.7</ele>
        <time>2020-09-27T08:58:08Z</time>
      </trkpt>
      <trkpt lat="43.94545" lon="6.23752">
        <ele>729.5</ele>
        <time>2020-09-27T08:58:15Z</time>
      </trkpt>
      <trkpt lat="43.9454" lon="6.23755">
        <ele>730.3</ele>
        <time>2020-09-27T08:58:23Z</time>
      </trkpt>
      <trkpt lat="43.94537" lon="6.2376">
        <ele>731.2</ele>
        <time>2020-09-27T08:58:29Z</time>
      </trkpt>
      <trkpt lat="43.94536" lon="6.23767">
        <ele>732</ele>
        <time>2020-09-27T08:58:36Z</time>
      </trkpt>
      <trkpt lat="43.94532" lon="6.23771">
        <ele>733</ele>
        <time>2020-09-27T08:58:44Z</time>
      </trkpt>
      <trkpt lat="43.94527" lon="6.23773">
        <ele>733.8</ele>
        <time>2020-09-27T08:58:50Z</time>
      </trkpt>
      <trkpt lat="43.94521" lon="6.23775">
        <ele>734.5</ele>
        <time>2020-09-27T08:58:56Z</time>
      </trkpt>
      <trkpt lat="43.94517" lon="6.23777">
        <ele>734.9</ele>
        <time>2020-09-27T08:59:01Z</time>
      </trkpt>
      <trkpt lat="43.94512" lon="6.2378">
        <ele>735.3</ele>
        <time>2020-09-27T08:59:07Z</time>
      </trkpt>
      <trkpt lat="43.94509" lon="6.23784">
        <ele>736</ele>
        <time>2020-09-27T08:59:12Z</time>
      </trkpt>
      <trkpt lat="43.94505" lon="6.23788">
        <ele>736.7</ele>
        <time>2020-09-27T08:59:18Z</time>
      </trkpt>
      <trkpt lat="43.94501" lon="6.23792">
        <ele>737.3</ele>
        <time>2020-09-27T08:59:24Z</time>
      </trkpt>
      <trkpt lat="43.94498" lon="6.23797">
        <ele>737.9</ele>
        <time>2020-09-27T08:59:31Z</time>
      </trkpt>
      <trkpt lat="43.94494" lon="6.23795">
        <ele>738.7</ele>
        <time>2020-09-27T08:59:38Z</time>
      </trkpt>
      <trkpt lat="43.9449" lon="6.2379">
        <ele>739.3</ele>
        <time>2020-09-27T08:59:44Z</time>
      </trkpt>
      <trkpt lat="43.94486" lon="6.23788">
        <ele>740.3</ele>
        <time>2020-09-27T08:59:51Z</time>
      </trkpt>
      <trkpt lat="43.94481" lon="6.23785">
        <ele>740.9</ele>
        <time>2020-09-27T08:59:57Z</time>
      </trkpt>
      <trkpt lat="43.94478" lon="6.23781">
        <ele>741.2</ele>
        <time>2020-09-27T09:00:01Z</time>
      </trkpt>
      <trkpt lat="43.94473" lon="6.23782">
        <ele>742</ele>
        <time>2020-09-27T09:00:09Z</time>
      </trkpt>
      <trkpt lat="43.94467" lon="6.23781">
        <ele>742</ele>
        <time>2020-09-27T09:00:15Z</time>
      </trkpt>
      <trkpt lat="43.94383" lon="6.23852">
        <ele>775.7</ele>
        <time>2020-09-27T09:03:42Z</time>
      </trkpt>
      <trkpt lat="43.94372" lon="6.23959">
        <ele>823</ele>
        <time>2020-09-27T09:06:43Z</time>
      </trkpt>
      <trkpt lat="43.94308" lon="6.24077">
        <ele>802.9</ele>
        <time>2020-09-27T09:10:21Z</time>
      </trkpt>
      <trkpt lat="43.94221" lon="6.24095">
        <ele>787.4</ele>
        <time>2020-09-27T09:13:21Z</time>
      </trkpt>
      <trkpt lat="43.94129" lon="6.241">
        <ele>787.1</ele>
        <time>2020-09-27T09:16:28Z</time>
      </trkpt>
      <trkpt lat="43.94088" lon="6.24197">
        <ele>828.6</ele>
        <time>2020-09-27T09:19:27Z</time>
      </trkpt>
      <trkpt lat="43.94039" lon="6.24188">
        <ele>812.8</ele>
        <time>2020-09-27T09:21:11Z</time>
      </trkpt>
      <trkpt lat="43.94004" lon="6.2425">
        <ele>830</ele>
        <time>2020-09-27T09:23:08Z</time>
      </trkpt>
      <trkpt lat="43.93975" lon="6.24284">
        <ele>807.5</ele>
        <time>2020-09-27T09:24:37Z</time>
      </trkpt>
      <trkpt lat="43.9397" lon="6.24281">
        <ele>807.4</ele>
        <time>2020-09-27T09:24:41Z</time>
      </trkpt>
      <trkpt lat="43.93965" lon="6.2428">
        <ele>807.1</ele>
        <time>2020-09-27T09:24:46Z</time>
      </trkpt>
      <trkpt lat="43.93961" lon="6.24282">
        <ele>807</ele>
        <time>2020-09-27T09:24:52Z</time>
      </trkpt>
      <trkpt lat="43.93957" lon="6.24285">
        <ele>806.8</ele>
        <time>2020-09-27T09:24:58Z</time>
      </trkpt>
      <trkpt lat="43.93952" lon="6.24286">
        <ele>806.8</ele>
        <time>2020-09-27T09:25:02Z</time>
      </trkpt>
      <trkpt lat="43.93947" lon="6.24283">
        <ele>806.6</ele>
        <time>2020-09-27T09:25:10Z</time>
      </trkpt>
      <trkpt lat="43.93943" lon="6.24283">
        <ele>806.3</ele>
        <time>2020-09-27T09:25:15Z</time>
      </trkpt>
      <trkpt lat="43.93939" lon="6.24287">
        <ele>806</ele>
        <time>2020-09-27T09:25:20Z</time>
      </trkpt>
      <trkpt lat="43.93936" lon="6.24293">
        <ele>805.8</ele>
        <time>2020-09-27T09:25:25Z</time>
      </trkpt>
      <trkpt lat="43.93933" lon="6.24299">
        <ele>805.5</ele>
        <time>2020-09-27T09:25:31Z</time>
      </trkpt>
      <trkpt lat="43.93928" lon="6.24302">
        <ele>805.2</ele>
        <time>2020-09-27T09:25:36Z</time>
      </trkpt>
      <trkpt lat="43.93924" lon="6.24306">
        <ele>805</ele>
        <time>2020-09-27T09:25:41Z</time>
      </trkpt>
      <trkpt lat="43.9392" lon="6.2431">
        <ele>804.8</ele>
        <time>2020-09-27T09:25:45Z</time>
      </trkpt>
      <trkpt lat="43.93916" lon="6.24312">
        <ele>804.6</ele>
        <time>2020-09-27T09:25:49Z</time>
      </trkpt>
      <trkpt lat="43.93911" lon="6.24311">
        <ele>804.5</ele>
        <time>2020-09-27T09:25:53Z</time>
      </trkpt>
      <trkpt lat="43.93906" lon="6.24312">
        <ele>804.4</ele>
        <time>2020-09-27T09:25:57Z</time>
      </trkpt>
      <trkpt lat="43.93901" lon="6.24312">
        <ele>804</ele>
        <time>2020-09-27T09:26:01Z</time>
      </trkpt>
      <trkpt lat="43.93897" lon="6.24317">
        <ele>803.4</ele>
        <time>2020-09-27T09:26:06Z</time>
      </trkpt>
      <trkpt lat="43.93893" lon="6.24322">
        <ele>803.1</ele>
        <time>2020-09-27T09:26:10Z</time>
      </trkpt>
      <trkpt lat="43.9389" lon="6.24328">
        <ele>802.8</ele>
        <time>2020-09-27T09:26:14Z</time>
      </trkpt>
      <trkpt lat="43.93886" lon="6.24333">
        <ele>802.5</ele>
        <time>2020-09-27T09:26:19Z</time>
      </trkpt>
      <trkpt lat="43.93882" lon="6.24337">
        <ele>802.3</ele>
        <time>2020-09-27T09:26:25Z</time>
      </trkpt>
      <trkpt lat="43.93879" lon="6.24342">
        <ele>802.2</ele>
        <time>2020-09-27T09:26:30Z</time>
      </trkpt>
      <trkpt lat="43.93875" lon="6.24346">
        <ele>802.1</ele>
        <time>2020-09-27T09:26:36Z</time>
      </trkpt>
      <trkpt lat="43.93871" lon="6.2435">
        <ele>802</ele>
        <time>2020-09-27T09:26:42Z</time>
      </trkpt>
      <trkpt lat="43.93867" lon="6.24354">
        <ele>801.8</ele>
        <time>2020-09-27T09:26:48Z</time>
      </trkpt>
      <trkpt lat="43.93863" lon="6.24359">
        <ele>801.7</ele>
        <time>2020-09-27T09:26:53Z</time>
      </trkpt>
      <trkpt lat="43.93861" lon="6.24364">
        <ele>801.4</ele>
        <time>2020-09-27T09:27:04Z</time>
      </trkpt>
      <trkpt lat="43.93857" lon="6.24368">
        <ele>801</ele>
        <time>2020-09-27T09:27:17Z</time>
      </trkpt>
      <trkpt lat="43.93853" lon="6.24372">
        <ele>800.7</ele>
        <time>2020-09-27T09:27:25Z</time>
      </trkpt>
      <trkpt lat="43.93852" lon="6.24379">
        <ele>800.1</ele>
        <time>2020-09-27T09:27:41Z</time>
      </trkpt>
      <trkpt lat="43.9385" lon="6.24384">
        <ele>799.8</ele>
        <time>2020-09-27T09:28:09Z</time>
      </trkpt>
      <trkpt lat="43.93845" lon="6.24386">
        <ele>799.7</ele>
        <time>2020-09-27T09:28:19Z</time>
      </trkpt>
      <trkpt lat="43.93841" lon="6.24389">
        <ele>799.7</ele>
        <time>2020-09-27T09:28:24Z</time>
      </trkpt>
      <trkpt lat="43.93836" lon="6.24391">
        <ele>799.7</ele>
        <time>2020-09-27T09:28:29Z</time>
      </trkpt>
      <trkpt lat="43.93832" lon="6.24393">
        <ele>799.6</ele>
        <time>2020-09-27T09:28:34Z</time>
      </trkpt>
      <trkpt lat="43.93828" lon="6.24398">
        <ele>799.4</ele>
        <time>2020-09-27T09:28:40Z</time>
      </trkpt>
      <trkpt lat="43.93825" lon="6.24404">
        <ele>799.2</ele>
        <time>2020-09-27T09:28:46Z</time>
      </trkpt>
      <trkpt lat="43.9382" lon="6.24407">
        <ele>798.8</ele>
        <time>2020-09-27T09:28:51Z</time>
      </trkpt>
      <trkpt lat="43.93815" lon="6.24409">
        <ele>798.6</ele>
        <time>2020-09-27T09:28:56Z</time>
      </trkpt>
      <trkpt lat="43.93812" lon="6.24415">
        <ele>797.9</ele>
        <time>2020-09-27T09:29:02Z</time>
      </trkpt>
      <trkpt lat="43.93808" lon="6.2442">
        <ele>797.4</ele>
        <time>2020-09-27T09:29:08Z</time>
      </trkpt>
      <trkpt lat="43.9381" lon="6.24409">
        <ele>797</ele>
        <time>2020-09-27T09:29:17Z</time>
      </trkpt>
      <trkpt lat="43.93804" lon="6.24411">
        <ele>796.8</ele>
        <time>2020-09-27T09:29:22Z</time>
      </trkpt>
      <trkpt lat="43.93799" lon="6.24413">
        <ele>796.6</ele>
        <time>2020-09-27T09:29:26Z</time>
      </trkpt>
      <trkpt lat="43.93794" lon="6.24415">
        <ele>796.1</ele>
        <time>2020-09-27T09:29:35Z</time>
      </trkpt>
      <trkpt lat="43.93789" lon="6.24417">
        <ele>795.8</ele>
        <time>2020-09-27T09:29:41Z</time>
      </trkpt>
      <trkpt lat="43.93784" lon="6.24417">
        <ele>795.7</ele>
        <time>2020-09-27T09:29:44Z</time>
      </trkpt>
      <trkpt lat="43.93778" lon="6.24418">
        <ele>795.4</ele>
        <time>2020-09-27T09:29:48Z</time>
      </trkpt>
      <trkpt lat="43.93773" lon="6.2442">
        <ele>795.2</ele>
        <time>2020-09-27T09:29:52Z</time>
      </trkpt>
      <trkpt lat="43.93769" lon="6.2442">
        <ele>795.1</ele>
        <time>2020-09-27T09:29:56Z</time>
      </trkpt>
      <trkpt lat="43.93764" lon="6.24423">
        <ele>794.8</ele>
        <time>2020-09-27T09:30:01Z</time>
      </trkpt>
      <trkpt lat="43.9376" lon="6.24426">
        <ele>794.6</ele>
        <time>2020-09-27T09:30:06Z</time>
      </trkpt>
      <trkpt lat="43.93755" lon="6.24429">
        <ele>794.4</ele>
        <time>2020-09-27T09:30:11Z</time>
      </trkpt>
      <trkpt lat="43.93751" lon="6.24432">
        <ele>794.1</ele>
        <time>2020-09-27T09:30:22Z</time>
      </trkpt>
      <trkpt lat="43.93749" lon="6.24439">
        <ele>793.3</ele>
        <time>2020-09-27T09:30:44Z</time>
      </trkpt>
      <trkpt lat="43.93745" lon="6.2444">
        <ele>793.3</ele>
        <time>2020-09-27T09:30:52Z</time>
      </trkpt>
      <trkpt lat="43.9374" lon="6.24438">
        <ele>793.3</ele>
        <time>2020-09-27T09:30:59Z</time>
      </trkpt>
      <trkpt lat="43.93736" lon="6.2444">
        <ele>793.1</ele>
        <time>2020-09-27T09:31:04Z</time>
      </trkpt>
      <trkpt lat="43.93731" lon="6.24441">
        <ele>793</ele>
        <time>2020-09-27T09:31:08Z</time>
      </trkpt>
      <trkpt lat="43.93726" lon="6.24441">
        <ele>793</ele>
        <time>2020-09-27T09:31:12Z</time>
      </trkpt>
      <trkpt lat="43.93721" lon="6.24442">
        <ele>792.9</ele>
        <time>2020-09-27T09:31:16Z</time>
      </trkpt>
      <trkpt lat="43.93716" lon="6.24444">
        <ele>792.8</ele>
        <time>2020-09-27T09:31:21Z</time>
      </trkpt>
      <trkpt lat="43.93711" lon="6.24446">
        <ele>792.7</ele>
        <time>2020-09-27T09:31:25Z</time>
      </trkpt>
      <trkpt lat="43.93706" lon="6.24448">
        <ele>792.5</ele>
        <time>2020-09-27T09:31:30Z</time>
      </trkpt>
      <trkpt lat="43.93703" lon="6.24453">
        <ele>792.2</ele>
        <time>2020-09-27T09:31:34Z</time>
      </trkpt>
      <trkpt lat="43.93698" lon="6.24456">
        <ele>791.6</ele>
        <time>2020-09-27T09:31:41Z</time>
      </trkpt>
      <trkpt lat="43.93693" lon="6.24458">
        <ele>791.3</ele>
        <time>2020-09-27T09:31:47Z</time>
      </trkpt>
      <trkpt lat="43.9369" lon="6.24461">
        <ele>791.1</ele>
        <time>2020-09-27T09:31:53Z</time>
      </trkpt>
      <trkpt lat="43.93686" lon="6.24466">
        <ele>790.9</ele>
        <time>2020-09-27T09:31:59Z</time>
      </trkpt>
      <trkpt lat="43.93681" lon="6.24468">
        <ele>790.4</ele>
        <time>2020-09-27T09:32:05Z</time>
      </trkpt>
      <trkpt lat="43.93678" lon="6.24472">
        <ele>790.1</ele>
        <time>2020-09-27T09:32:10Z</time>
      </trkpt>
      <trkpt lat="43.93674" lon="6.24477">
        <ele>789.8</ele>
        <time>2020-09-27T09:32:16Z</time>
      </trkpt>
      <trkpt lat="43.93673" lon="6.24483">
        <ele>789.6</ele>
        <time>2020-09-27T09:32:21Z</time>
      </trkpt>
      <trkpt lat="43.9367" lon="6.24489">
        <ele>789.5</ele>
        <time>2020-09-27T09:32:26Z</time>
      </trkpt>
      <trkpt lat="43.93667" lon="6.24493">
        <ele>789.1</ele>
        <time>2020-09-27T09:32:32Z</time>
      </trkpt>
      <trkpt lat="43.93662" lon="6.24497">
        <ele>788.5</ele>
        <time>2020-09-27T09:32:38Z</time>
      </trkpt>
      <trkpt lat="43.9366" lon="6.24502">
        <ele>788</ele>
        <time>2020-09-27T09:32:47Z</time>
      </trkpt>
      <trkpt lat="43.93657" lon="6.24507">
        <ele>787.6</ele>
        <time>2020-09-27T09:32:57Z</time>
      </trkpt>
      <trkpt lat="43.93654" lon="6.24514">
        <ele>787.4</ele>
        <time>2020-09-27T09:33:03Z</time>
      </trkpt>
      <trkpt lat="43.9365" lon="6.24518">
        <ele>787.1</ele>
        <time>2020-09-27T09:33:09Z</time>
      </trkpt>
      <trkpt lat="43.93646" lon="6.24521">
        <ele>786.8</ele>
        <time>2020-09-27T09:33:15Z</time>
      </trkpt>
      <trkpt lat="43.93642" lon="6.24526">
        <ele>786.6</ele>
        <time>2020-09-27T09:33:21Z</time>
      </trkpt>
      <trkpt lat="43.93638" lon="6.24529">
        <ele>786.3</ele>
        <time>2020-09-27T09:33:29Z</time>
      </trkpt>
      <trkpt lat="43.93633" lon="6.24532">
        <ele>786.1</ele>
        <time>2020-09-27T09:33:36Z</time>
      </trkpt>
      <trkpt lat="43.93629" lon="6.24534">
        <ele>785.7</ele>
        <time>2020-09-27T09:33:45Z</time>
      </trkpt>
      <trkpt lat="43.93627" lon="6.2454">
        <ele>785.2</ele>
        <time>2020-09-27T09:33:57Z</time>
      </trkpt>
      <trkpt lat="43.93622" lon="6.24542">
        <ele>784.9</ele>
        <time>2020-09-27T09:34:06Z</time>
      </trkpt>
      <trkpt lat="43.93617" lon="6.24542">
        <ele>784.7</ele>
        <time>2020-09-27T09:34:12Z</time>
      </trkpt>
      <trkpt lat="43.93611" lon="6.24542">
        <ele>784.6</ele>
        <time>2020-09-27T09:34:17Z</time>
      </trkpt>
      <trkpt lat="43.93607" lon="6.24544">
        <ele>784.5</ele>
        <time>2020-09-27T09:34:21Z</time>
      </trkpt>
      <trkpt lat="43.93602" lon="6.24546">
        <ele>784.5</ele>
        <time>2020-09-27T09:34:26Z</time>
      </trkpt>
      <trkpt lat="43.93598" lon="6.24548">
        <ele>784.6</ele>
        <time>2020-09-27T09:34:32Z</time>
      </trkpt>
      <trkpt lat="43.93593" lon="6.24551">
        <ele>784.6</ele>
        <time>2020-09-27T09:34:38Z</time>
      </trkpt>
      <trkpt lat="43.93589" lon="6.24554">
        <ele>784.7</ele>
        <time>2020-09-27T09:34:43Z</time>
      </trkpt>
      <trkpt lat="43.93585" lon="6.24556">
        <ele>784.7</ele>
        <time>2020-09-27T09:34:48Z</time>
      </trkpt>
      <trkpt lat="43.9358" lon="6.24557">
        <ele>784.7</ele>
        <time>2020-09-27T09:34:52Z</time>
      </trkpt>
      <trkpt lat="43.93575" lon="6.2456">
        <ele>784.7</ele>
        <time>2020-09-27T09:34:56Z</time>
      </trkpt>
      <trkpt lat="43.9357" lon="6.24562">
        <ele>784.4</ele>
        <time>2020-09-27T09:35:02Z</time>
      </trkpt>
      <trkpt lat="43.93566" lon="6.24568">
        <ele>784.1</ele>
        <time>2020-09-27T09:35:06Z</time>
      </trkpt>
      <trkpt lat="43.93563" lon="6.24572">
        <ele>783.9</ele>
        <time>2020-09-27T09:35:11Z</time>
      </trkpt>
      <trkpt lat="43.93558" lon="6.24574">
        <ele>783.6</ele>
        <time>2020-09-27T09:35:15Z</time>
      </trkpt>
      <trkpt lat="43.93554" lon="6.24577">
        <ele>783</ele>
        <time>2020-09-27T09:35:21Z</time>
      </trkpt>
      <trkpt lat="43.93551" lon="6.24571">
        <ele>782.5</ele>
        <time>2020-09-27T09:35:24Z</time>
      </trkpt>
      <trkpt lat="43.93546" lon="6.24571">
        <ele>781.8</ele>
        <time>2020-09-27T09:35:29Z</time>
      </trkpt>
      <trkpt lat="43.93541" lon="6.24573">
        <ele>781.2</ele>
        <time>2020-09-27T09:35:34Z</time>
      </trkpt>
      <trkpt lat="43.93536" lon="6.24572">
        <ele>780.6</ele>
        <time>2020-09-27T09:35:39Z</time>
      </trkpt>
      <trkpt lat="43.93531" lon="6.2457">
        <ele>779.9</ele>
        <time>2020-09-27T09:35:43Z</time>
      </trkpt>
      <trkpt lat="43.93527" lon="6.24566">
        <ele>778.1</ele>
        <time>2020-09-27T09:35:53Z</time>
      </trkpt>
      <trkpt lat="43.93525" lon="6.24559">
        <ele>777.8</ele>
        <time>2020-09-27T09:35:55Z</time>
      </trkpt>
      <trkpt lat="43.93521" lon="6.24554">
        <ele>777.3</ele>
        <time>2020-09-27T09:35:58Z</time>
      </trkpt>
      <trkpt lat="43.93517" lon="6.24551">
        <ele>776.2</ele>
        <time>2020-09-27T09:36:04Z</time>
      </trkpt>
      <trkpt lat="43.93512" lon="6.24547">
        <ele>775.6</ele>
        <time>2020-09-27T09:36:08Z</time>
      </trkpt>
      <trkpt lat="43.93508" lon="6.24542">
        <ele>774.9</ele>
        <time>2020-09-27T09:36:14Z</time>
      </trkpt>
      <trkpt lat="43.93505" lon="6.24537">
        <ele>774.6</ele>
        <time>2020-09-27T09:36:17Z</time>
      </trkpt>
      <trkpt lat="43.93501" lon="6.24534">
        <ele>774.3</ele>
        <time>2020-09-27T09:36:20Z</time>
      </trkpt>
      <trkpt lat="43.93496" lon="6.24531">
        <ele>773.8</ele>
        <time>2020-09-27T09:36:23Z</time>
      </trkpt>
      <trkpt lat="43.93491" lon="6.2453">
        <ele>773.4</ele>
        <time>2020-09-27T09:36:27Z</time>
      </trkpt>
      <trkpt lat="43.93486" lon="6.2453">
        <ele>772.6</ele>
        <time>2020-09-27T09:36:32Z</time>
      </trkpt>
      <trkpt lat="43.93481" lon="6.24528">
        <ele>772</ele>
        <time>2020-09-27T09:36:36Z</time>
      </trkpt>
      <trkpt lat="43.93476" lon="6.24528">
        <ele>771.5</ele>
        <time>2020-09-27T09:36:40Z</time>
      </trkpt>
      <trkpt lat="43.93472" lon="6.24527">
        <ele>770.8</ele>
        <time>2020-09-27T09:36:45Z</time>
      </trkpt>
      <trkpt lat="43.93467" lon="6.24524">
        <ele>769.9</ele>
        <time>2020-09-27T09:36:50Z</time>
      </trkpt>
      <trkpt lat="43.93463" lon="6.24526">
        <ele>769</ele>
        <time>2020-09-27T09:36:56Z</time>
      </trkpt>
      <trkpt lat="43.9346" lon="6.24532">
        <ele>768.2</ele>
        <time>2020-09-27T09:37:03Z</time>
      </trkpt>
      <trkpt lat="43.93445" lon="6.24553">
        <ele>781.1</ele>
        <time>2020-09-27T09:37:40Z</time>
      </trkpt>
      <trkpt lat="43.93429" lon="6.24573">
        <ele>786.1</ele>
        <time>2020-09-27T09:38:13Z</time>
      </trkpt>
      <trkpt lat="43.93416" lon="6.24585">
        <ele>786.5</ele>
        <time>2020-09-27T09:38:36Z</time>
      </trkpt>
      <trkpt lat="43.93403" lon="6.24602">
        <ele>795.4</ele>
        <time>2020-09-27T09:39:06Z</time>
      </trkpt>
      <trkpt lat="43.93393" lon="6.24615">
        <ele>801.2</ele>
        <time>2020-09-27T09:39:28Z</time>
      </trkpt>
      <trkpt lat="43.93384" lon="6.24632">
        <ele>810</ele>
        <time>2020-09-27T09:39:55Z</time>
      </trkpt>
      <trkpt lat="43.9337" lon="6.24634">
        <ele>805.9</ele>
        <time>2020-09-27T09:39:58Z</time>
      </trkpt>
      <trkpt lat="43.9336" lon="6.24628">
        <ele>798.1</ele>
        <time>2020-09-27T09:40:02Z</time>
      </trkpt>
      <trkpt lat="43.93352" lon="6.24608">
        <ele>783.7</ele>
        <time>2020-09-27T09:40:08Z</time>
      </trkpt>
      <trkpt lat="43.93355" lon="6.24587">
        <ele>772.2</ele>
        <time>2020-09-27T09:40:14Z</time>
      </trkpt>
      <trkpt lat="43.93365" lon="6.24582">
        <ele>772.6</ele>
        <time>2020-09-27T09:53:42Z</time>
      </trkpt>
      <trkpt lat="43.9337" lon="6.24573">
        <ele>772.3</ele>
        <time>2020-09-27T10:05:13Z</time>
      </trkpt>
      <trkpt lat="43.93374" lon="6.24568">
        <ele>772.1</ele>
        <time>2020-09-27T10:12:06Z</time>
      </trkpt>
      <trkpt lat="43.93375" lon="6.24562">
        <ele>771</ele>
        <time>2020-09-27T10:18:46Z</time>
      </trkpt>
      <trkpt lat="43.93373" lon="6.24548">
        <ele>758.5</ele>
        <time>2020-09-27T10:32:12Z</time>
      </trkpt>
      <trkpt lat="43.93368" lon="6.24543">
        <ele>766.4</ele>
        <time>2020-09-27T10:33:03Z</time>
      </trkpt>
      <trkpt lat="43.93365" lon="6.24535">
        <ele>764.6</ele>
        <time>2020-09-27T10:33:22Z</time>
      </trkpt>
      <trkpt lat="43.93363" lon="6.2453">
        <ele>763.5</ele>
        <time>2020-09-27T10:33:28Z</time>
      </trkpt>
      <trkpt lat="43.93361" lon="6.24527">
        <ele>762.9</ele>
        <time>2020-09-27T10:33:31Z</time>
      </trkpt>
      <trkpt lat="43.93361" lon="6.24521">
        <ele>758.8</ele>
        <time>2020-09-27T10:33:35Z</time>
      </trkpt>
      <trkpt lat="43.93356" lon="6.24515">
        <ele>758.9</ele>
        <time>2020-09-27T10:33:39Z</time>
      </trkpt>
      <trkpt lat="43.93355" lon="6.24507">
        <ele>759</ele>
        <time>2020-09-27T10:33:50Z</time>
      </trkpt>
      <trkpt lat="43.93359" lon="6.24502">
        <ele>760.1</ele>
        <time>2020-09-27T10:34:00Z</time>
      </trkpt>
      <trkpt lat="43.9336" lon="6.24496">
        <ele>760.7</ele>
        <time>2020-09-27T10:34:08Z</time>
      </trkpt>
      <trkpt lat="43.93364" lon="6.24491">
        <ele>761.7</ele>
        <time>2020-09-27T10:34:16Z</time>
      </trkpt>
      <trkpt lat="43.93366" lon="6.24485">
        <ele>762.7</ele>
        <time>2020-09-27T10:34:24Z</time>
      </trkpt>
      <trkpt lat="43.93369" lon="6.24479">
        <ele>763.5</ele>
        <time>2020-09-27T10:34:31Z</time>
      </trkpt>
      <trkpt lat="43.93373" lon="6.24478">
        <ele>764.3</ele>
        <time>2020-09-27T10:34:38Z</time>
      </trkpt>
      <trkpt lat="43.93377" lon="6.24474">
        <ele>764.9</ele>
        <time>2020-09-27T10:34:45Z</time>
      </trkpt>
      <trkpt lat="43.93375" lon="6.24468">
        <ele>765.2</ele>
        <time>2020-09-27T10:34:49Z</time>
      </trkpt>
      <trkpt lat="43.93375" lon="6.24461">
        <ele>765.4</ele>
        <time>2020-09-27T10:34:54Z</time>
      </trkpt>
      <trkpt lat="43.93378" lon="6.24456">
        <ele>766</ele>
        <time>2020-09-27T10:35:10Z</time>
      </trkpt>
      <trkpt lat="43.93381" lon="6.24452">
        <ele>766.2</ele>
        <time>2020-09-27T10:35:14Z</time>
      </trkpt>
      <trkpt lat="43.93386" lon="6.24449">
        <ele>766.8</ele>
        <time>2020-09-27T10:35:20Z</time>
      </trkpt>
      <trkpt lat="43.93391" lon="6.24449">
        <ele>767.3</ele>
        <time>2020-09-27T10:35:26Z</time>
      </trkpt>
      <trkpt lat="43.93394" lon="6.24444">
        <ele>767.8</ele>
        <time>2020-09-27T10:35:31Z</time>
      </trkpt>
      <trkpt lat="43.93396" lon="6.24436">
        <ele>768.4</ele>
        <time>2020-09-27T10:35:36Z</time>
      </trkpt>
      <trkpt lat="43.934" lon="6.24432">
        <ele>769.1</ele>
        <time>2020-09-27T10:35:42Z</time>
      </trkpt>
      <trkpt lat="43.93404" lon="6.2443">
        <ele>769.9</ele>
        <time>2020-09-27T10:35:48Z</time>
      </trkpt>
      <trkpt lat="43.93408" lon="6.24426">
        <ele>770.6</ele>
        <time>2020-09-27T10:35:55Z</time>
      </trkpt>
      <trkpt lat="43.93412" lon="6.24421">
        <ele>771.2</ele>
        <time>2020-09-27T10:36:00Z</time>
      </trkpt>
      <trkpt lat="43.93415" lon="6.24416">
        <ele>772</ele>
        <time>2020-09-27T10:36:07Z</time>
      </trkpt>
      <trkpt lat="43.93419" lon="6.24413">
        <ele>772.6</ele>
        <time>2020-09-27T10:36:13Z</time>
      </trkpt>
      <trkpt lat="43.93425" lon="6.24412">
        <ele>773</ele>
        <time>2020-09-27T10:36:17Z</time>
      </trkpt>
      <trkpt lat="43.9343" lon="6.2441">
        <ele>773.4</ele>
        <time>2020-09-27T10:36:21Z</time>
      </trkpt>
      <trkpt lat="43.93434" lon="6.24405">
        <ele>774.1</ele>
        <time>2020-09-27T10:36:26Z</time>
      </trkpt>
      <trkpt lat="43.93438" lon="6.244">
        <ele>774.7</ele>
        <time>2020-09-27T10:36:31Z</time>
      </trkpt>
      <trkpt lat="43.93443" lon="6.24399">
        <ele>775.4</ele>
        <time>2020-09-27T10:36:36Z</time>
      </trkpt>
      <trkpt lat="43.93448" lon="6.24398">
        <ele>775.9</ele>
        <time>2020-09-27T10:36:40Z</time>
      </trkpt>
      <trkpt lat="43.93452" lon="6.24394">
        <ele>776.5</ele>
        <time>2020-09-27T10:36:47Z</time>
      </trkpt>
      <trkpt lat="43.93456" lon="6.24391">
        <ele>777.2</ele>
        <time>2020-09-27T10:36:53Z</time>
      </trkpt>
      <trkpt lat="43.9346" lon="6.24388">
        <ele>777.9</ele>
        <time>2020-09-27T10:36:59Z</time>
      </trkpt>
      <trkpt lat="43.93464" lon="6.24385">
        <ele>778.7</ele>
        <time>2020-09-27T10:37:07Z</time>
      </trkpt>
      <trkpt lat="43.93469" lon="6.24385">
        <ele>779.4</ele>
        <time>2020-09-27T10:37:16Z</time>
      </trkpt>
      <trkpt lat="43.93471" lon="6.24379">
        <ele>780.1</ele>
        <time>2020-09-27T10:37:22Z</time>
      </trkpt>
      <trkpt lat="43.93473" lon="6.24373">
        <ele>780.8</ele>
        <time>2020-09-27T10:37:28Z</time>
      </trkpt>
      <trkpt lat="43.93476" lon="6.24367">
        <ele>781.4</ele>
        <time>2020-09-27T10:37:33Z</time>
      </trkpt>
      <trkpt lat="43.9348" lon="6.24363">
        <ele>782.2</ele>
        <time>2020-09-27T10:37:39Z</time>
      </trkpt>
      <trkpt lat="43.93479" lon="6.24355">
        <ele>782.9</ele>
        <time>2020-09-27T10:37:45Z</time>
      </trkpt>
      <trkpt lat="43.93479" lon="6.24347">
        <ele>783.7</ele>
        <time>2020-09-27T10:37:52Z</time>
      </trkpt>
      <trkpt lat="43.93477" lon="6.24341">
        <ele>784.2</ele>
        <time>2020-09-27T10:37:56Z</time>
      </trkpt>
      <trkpt lat="43.93474" lon="6.24334">
        <ele>784.9</ele>
        <time>2020-09-27T10:38:03Z</time>
      </trkpt>
      <trkpt lat="43.93471" lon="6.24328">
        <ele>786</ele>
        <time>2020-09-27T10:38:12Z</time>
      </trkpt>
      <trkpt lat="43.93469" lon="6.24322">
        <ele>786.9</ele>
        <time>2020-09-27T10:38:20Z</time>
      </trkpt>
      <trkpt lat="43.93465" lon="6.24318">
        <ele>787.8</ele>
        <time>2020-09-27T10:38:27Z</time>
      </trkpt>
      <trkpt lat="43.93461" lon="6.24317">
        <ele>788.3</ele>
        <time>2020-09-27T10:38:31Z</time>
      </trkpt>
      <trkpt lat="43.93455" lon="6.24315">
        <ele>788.8</ele>
        <time>2020-09-27T10:38:35Z</time>
      </trkpt>
      <trkpt lat="43.93451" lon="6.24315">
        <ele>789.1</ele>
        <time>2020-09-27T10:38:38Z</time>
      </trkpt>
      <trkpt lat="43.93446" lon="6.24316">
        <ele>789.5</ele>
        <time>2020-09-27T10:38:43Z</time>
      </trkpt>
      <trkpt lat="43.93441" lon="6.24313">
        <ele>790.2</ele>
        <time>2020-09-27T10:38:52Z</time>
      </trkpt>
      <trkpt lat="43.93436" lon="6.24311">
        <ele>790</ele>
        <time>2020-09-27T10:38:56Z</time>
      </trkpt>
      <trkpt lat="43.93431" lon="6.24311">
        <ele>791.4</ele>
        <time>2020-09-27T10:39:02Z</time>
      </trkpt>
      <trkpt lat="43.93427" lon="6.24314">
        <ele>792.3</ele>
        <time>2020-09-27T10:39:07Z</time>
      </trkpt>
      <trkpt lat="43.93425" lon="6.24321">
        <ele>793.3</ele>
        <time>2020-09-27T10:39:15Z</time>
      </trkpt>
      <trkpt lat="43.93421" lon="6.24326">
        <ele>794</ele>
        <time>2020-09-27T10:39:20Z</time>
      </trkpt>
      <trkpt lat="43.93417" lon="6.24329">
        <ele>795.3</ele>
        <time>2020-09-27T10:39:28Z</time>
      </trkpt>
      <trkpt lat="43.93413" lon="6.24332">
        <ele>796.2</ele>
        <time>2020-09-27T10:39:35Z</time>
      </trkpt>
      <trkpt lat="43.93408" lon="6.24334">
        <ele>797.3</ele>
        <time>2020-09-27T10:39:43Z</time>
      </trkpt>
      <trkpt lat="43.93403" lon="6.24335">
        <ele>797.9</ele>
        <time>2020-09-27T10:39:48Z</time>
      </trkpt>
      <trkpt lat="43.93401" lon="6.2434">
        <ele>798.6</ele>
        <time>2020-09-27T10:39:54Z</time>
      </trkpt>
      <trkpt lat="43.93396" lon="6.24341">
        <ele>799.1</ele>
        <time>2020-09-27T10:40:00Z</time>
      </trkpt>
      <trkpt lat="43.93392" lon="6.2434">
        <ele>799.5</ele>
        <time>2020-09-27T10:40:04Z</time>
      </trkpt>
      <trkpt lat="43.93389" lon="6.24345">
        <ele>800.6</ele>
        <time>2020-09-27T10:40:14Z</time>
      </trkpt>
      <trkpt lat="43.93384" lon="6.24346">
        <ele>801.4</ele>
        <time>2020-09-27T10:40:21Z</time>
      </trkpt>
      <trkpt lat="43.93379" lon="6.24344">
        <ele>802.2</ele>
        <time>2020-09-27T10:40:28Z</time>
      </trkpt>
      <trkpt lat="43.93374" lon="6.24346">
        <ele>802.9</ele>
        <time>2020-09-27T10:40:36Z</time>
      </trkpt>
      <trkpt lat="43.9337" lon="6.24343">
        <ele>803.6</ele>
        <time>2020-09-27T10:40:46Z</time>
      </trkpt>
      <trkpt lat="43.93365" lon="6.24338">
        <ele>803.8</ele>
        <time>2020-09-27T10:40:50Z</time>
      </trkpt>
      <trkpt lat="43.93361" lon="6.24336">
        <ele>804</ele>
        <time>2020-09-27T10:40:53Z</time>
      </trkpt>
      <trkpt lat="43.93356" lon="6.24335">
        <ele>804.3</ele>
        <time>2020-09-27T10:40:57Z</time>
      </trkpt>
      <trkpt lat="43.93351" lon="6.24332">
        <ele>804.6</ele>
        <time>2020-09-27T10:41:02Z</time>
      </trkpt>
      <trkpt lat="43.93347" lon="6.24332">
        <ele>805.1</ele>
        <time>2020-09-27T10:41:11Z</time>
      </trkpt>
      <trkpt lat="43.93343" lon="6.24328">
        <ele>805.4</ele>
        <time>2020-09-27T10:41:14Z</time>
      </trkpt>
      <trkpt lat="43.93339" lon="6.24329">
        <ele>806.2</ele>
        <time>2020-09-27T10:41:22Z</time>
      </trkpt>
      <trkpt lat="43.93334" lon="6.24331">
        <ele>806</ele>
        <time>2020-09-27T10:41:28Z</time>
      </trkpt>
      <trkpt lat="43.93328" lon="6.2433">
        <ele>807</ele>
        <time>2020-09-27T10:41:38Z</time>
      </trkpt>
      <trkpt lat="43.93324" lon="6.24327">
        <ele>807.9</ele>
        <time>2020-09-27T10:41:45Z</time>
      </trkpt>
      <trkpt lat="43.93319" lon="6.24326">
        <ele>808.2</ele>
        <time>2020-09-27T10:41:50Z</time>
      </trkpt>
      <trkpt lat="43.93314" lon="6.24323">
        <ele>808.4</ele>
        <time>2020-09-27T10:41:54Z</time>
      </trkpt>
      <trkpt lat="43.93309" lon="6.24322">
        <ele>808.7</ele>
        <time>2020-09-27T10:41:58Z</time>
      </trkpt>
      <trkpt lat="43.93305" lon="6.24321">
        <ele>809.1</ele>
        <time>2020-09-27T10:42:02Z</time>
      </trkpt>
      <trkpt lat="43.933" lon="6.24318">
        <ele>809.4</ele>
        <time>2020-09-27T10:42:08Z</time>
      </trkpt>
      <trkpt lat="43.93295" lon="6.24316">
        <ele>809.7</ele>
        <time>2020-09-27T10:42:13Z</time>
      </trkpt>
      <trkpt lat="43.93291" lon="6.24315">
        <ele>810</ele>
        <time>2020-09-27T10:42:17Z</time>
      </trkpt>
      <trkpt lat="43.93286" lon="6.24314">
        <ele>810.6</ele>
        <time>2020-09-27T10:42:23Z</time>
      </trkpt>
      <trkpt lat="43.9328" lon="6.24314">
        <ele>811</ele>
        <time>2020-09-27T10:42:28Z</time>
      </trkpt>
      <trkpt lat="43.93276" lon="6.24313">
        <ele>811.5</ele>
        <time>2020-09-27T10:42:33Z</time>
      </trkpt>
      <trkpt lat="43.93271" lon="6.24311">
        <ele>812.1</ele>
        <time>2020-09-27T10:42:39Z</time>
      </trkpt>
      <trkpt lat="43.93267" lon="6.24308">
        <ele>812.5</ele>
        <time>2020-09-27T10:42:44Z</time>
      </trkpt>
      <trkpt lat="43.93264" lon="6.24303">
        <ele>813</ele>
        <time>2020-09-27T10:42:50Z</time>
      </trkpt>
      <trkpt lat="43.9326" lon="6.24298">
        <ele>813.6</ele>
        <time>2020-09-27T10:42:56Z</time>
      </trkpt>
      <trkpt lat="43.93256" lon="6.24294">
        <ele>814.4</ele>
        <time>2020-09-27T10:43:03Z</time>
      </trkpt>
      <trkpt lat="43.93253" lon="6.24286">
        <ele>815</ele>
        <time>2020-09-27T10:43:10Z</time>
      </trkpt>
      <trkpt lat="43.93255" lon="6.24279">
        <ele>815.7</ele>
        <time>2020-09-27T10:43:17Z</time>
      </trkpt>
      <trkpt lat="43.93251" lon="6.24274">
        <ele>816.2</ele>
        <time>2020-09-27T10:43:24Z</time>
      </trkpt>
      <trkpt lat="43.93249" lon="6.24267">
        <ele>816.4</ele>
        <time>2020-09-27T10:43:28Z</time>
      </trkpt>
      <trkpt lat="43.93246" lon="6.24261">
        <ele>817</ele>
        <time>2020-09-27T10:43:36Z</time>
      </trkpt>
      <trkpt lat="43.93243" lon="6.24256">
        <ele>817.5</ele>
        <time>2020-09-27T10:43:42Z</time>
      </trkpt>
      <trkpt lat="43.93239" lon="6.24251">
        <ele>818</ele>
        <time>2020-09-27T10:43:48Z</time>
      </trkpt>
      <trkpt lat="43.93235" lon="6.24248">
        <ele>818.3</ele>
        <time>2020-09-27T10:43:53Z</time>
      </trkpt>
      <trkpt lat="43.93231" lon="6.24243">
        <ele>818.7</ele>
        <time>2020-09-27T10:43:59Z</time>
      </trkpt>
      <trkpt lat="43.93228" lon="6.24237">
        <ele>819.3</ele>
        <time>2020-09-27T10:44:06Z</time>
      </trkpt>
      <trkpt lat="43.93223" lon="6.24236">
        <ele>819.6</ele>
        <time>2020-09-27T10:44:10Z</time>
      </trkpt>
      <trkpt lat="43.93218" lon="6.24235">
        <ele>819.9</ele>
        <time>2020-09-27T10:44:15Z</time>
      </trkpt>
      <trkpt lat="43.93215" lon="6.24231">
        <ele>820.4</ele>
        <time>2020-09-27T10:44:20Z</time>
      </trkpt>
      <trkpt lat="43.93211" lon="6.24226">
        <ele>821.4</ele>
        <time>2020-09-27T10:44:32Z</time>
      </trkpt>
      <trkpt lat="43.93207" lon="6.24227">
        <ele>821.9</ele>
        <time>2020-09-27T10:44:38Z</time>
      </trkpt>
      <trkpt lat="43.93202" lon="6.24225">
        <ele>822.2</ele>
        <time>2020-09-27T10:44:44Z</time>
      </trkpt>
      <trkpt lat="43.93207" lon="6.2422">
        <ele>822.8</ele>
        <time>2020-09-27T10:44:56Z</time>
      </trkpt>
      <trkpt lat="43.93201" lon="6.24219">
        <ele>823.1</ele>
        <time>2020-09-27T10:45:04Z</time>
      </trkpt>
      <trkpt lat="43.93196" lon="6.24219">
        <ele>823.3</ele>
        <time>2020-09-27T10:45:09Z</time>
      </trkpt>
      <trkpt lat="43.93192" lon="6.24219">
        <ele>823.5</ele>
        <time>2020-09-27T10:45:34Z</time>
      </trkpt>
      <trkpt lat="43.93196" lon="6.24218">
        <ele>823.6</ele>
        <time>2020-09-27T10:45:59Z</time>
      </trkpt>
      <trkpt lat="43.93192" lon="6.24216">
        <ele>823.6</ele>
        <time>2020-09-27T10:46:12Z</time>
      </trkpt>
      <trkpt lat="43.93191" lon="6.24223">
        <ele>823.4</ele>
        <time>2020-09-27T10:46:54Z</time>
      </trkpt>
      <trkpt lat="43.93195" lon="6.24229">
        <ele>823.4</ele>
        <time>2020-09-27T10:47:01Z</time>
      </trkpt>
      <trkpt lat="43.9319" lon="6.24224">
        <ele>823.6</ele>
        <time>2020-09-27T10:47:43Z</time>
      </trkpt>
      <trkpt lat="43.93185" lon="6.24221">
        <ele>823.7</ele>
        <time>2020-09-27T10:47:53Z</time>
      </trkpt>
      <trkpt lat="43.93181" lon="6.24221">
        <ele>824.2</ele>
        <time>2020-09-27T10:48:06Z</time>
      </trkpt>
      <trkpt lat="43.93185" lon="6.24222">
        <ele>824.7</ele>
        <time>2020-09-27T10:48:20Z</time>
      </trkpt>
      <trkpt lat="43.93182" lon="6.24216">
        <ele>825.3</ele>
        <time>2020-09-27T10:48:36Z</time>
      </trkpt>
      <trkpt lat="43.93178" lon="6.24209">
        <ele>825.5</ele>
        <time>2020-09-27T10:48:40Z</time>
      </trkpt>
      <trkpt lat="43.93178" lon="6.24202">
        <ele>826</ele>
        <time>2020-09-27T10:48:53Z</time>
      </trkpt>
      <trkpt lat="43.93182" lon="6.24199">
        <ele>826.1</ele>
        <time>2020-09-27T10:48:57Z</time>
      </trkpt>
      <trkpt lat="43.93187" lon="6.24201">
        <ele>826.3</ele>
        <time>2020-09-27T10:49:04Z</time>
      </trkpt>
      <trkpt lat="43.93192" lon="6.242">
        <ele>826</ele>
        <time>2020-09-27T10:49:10Z</time>
      </trkpt>
      <trkpt lat="43.93195" lon="6.24196">
        <ele>827.1</ele>
        <time>2020-09-27T10:49:17Z</time>
      </trkpt>
      <trkpt lat="43.932" lon="6.24196">
        <ele>827.4</ele>
        <time>2020-09-27T10:49:22Z</time>
      </trkpt>
      <trkpt lat="43.93204" lon="6.242">
        <ele>827.7</ele>
        <time>2020-09-27T10:49:26Z</time>
      </trkpt>
      <trkpt lat="43.9321" lon="6.242">
        <ele>828</ele>
        <time>2020-09-27T10:49:35Z</time>
      </trkpt>
      <trkpt lat="43.93215" lon="6.24197">
        <ele>828</ele>
        <time>2020-09-27T10:49:40Z</time>
      </trkpt>
      <trkpt lat="43.93219" lon="6.24198">
        <ele>829</ele>
        <time>2020-09-27T10:49:45Z</time>
      </trkpt>
      <trkpt lat="43.93225" lon="6.24198">
        <ele>829</ele>
        <time>2020-09-27T10:49:48Z</time>
      </trkpt>
      <trkpt lat="43.93232" lon="6.24199">
        <ele>829</ele>
        <time>2020-09-27T10:49:52Z</time>
      </trkpt>
      <trkpt lat="43.9324" lon="6.24199">
        <ele>829</ele>
        <time>2020-09-27T10:49:56Z</time>
      </trkpt>
      <trkpt lat="43.93246" lon="6.242">
        <ele>830</ele>
        <time>2020-09-27T10:50:00Z</time>
      </trkpt>
      <trkpt lat="43.93252" lon="6.242">
        <ele>830</ele>
        <time>2020-09-27T10:50:04Z</time>
      </trkpt>
      <trkpt lat="43.93258" lon="6.24201">
        <ele>830</ele>
        <time>2020-09-27T10:50:08Z</time>
      </trkpt>
      <trkpt lat="43.93263" lon="6.24204">
        <ele>830</ele>
        <time>2020-09-27T10:50:12Z</time>
      </trkpt>
      <trkpt lat="43.93269" lon="6.24206">
        <ele>831</ele>
        <time>2020-09-27T10:50:16Z</time>
      </trkpt>
      <trkpt lat="43.93275" lon="6.24208">
        <ele>831</ele>
        <time>2020-09-27T10:50:20Z</time>
      </trkpt>
      <trkpt lat="43.9328" lon="6.2421">
        <ele>831</ele>
        <time>2020-09-27T10:50:24Z</time>
      </trkpt>
      <trkpt lat="43.93287" lon="6.24208">
        <ele>832</ele>
        <time>2020-09-27T10:50:32Z</time>
      </trkpt>
      <trkpt lat="43.93294" lon="6.24213">
        <ele>832</ele>
        <time>2020-09-27T10:50:41Z</time>
      </trkpt>
      <trkpt lat="43.93299" lon="6.24215">
        <ele>833</ele>
        <time>2020-09-27T10:51:01Z</time>
      </trkpt>
      <trkpt lat="43.93299" lon="6.24208">
        <ele>834</ele>
        <time>2020-09-27T10:51:21Z</time>
      </trkpt>
      <trkpt lat="43.93301" lon="6.24214">
        <ele>834</ele>
        <time>2020-09-27T10:51:41Z</time>
      </trkpt>
      <trkpt lat="43.93304" lon="6.24223">
        <ele>834</ele>
        <time>2020-09-27T10:51:49Z</time>
      </trkpt>
      <trkpt lat="43.93308" lon="6.24228">
        <ele>834.9</ele>
        <time>2020-09-27T10:52:06Z</time>
      </trkpt>
      <trkpt lat="43.93313" lon="6.24228">
        <ele>835.4</ele>
        <time>2020-09-27T10:52:16Z</time>
      </trkpt>
      <trkpt lat="43.93315" lon="6.24221">
        <ele>836</ele>
        <time>2020-09-27T10:52:29Z</time>
      </trkpt>
      <trkpt lat="43.93317" lon="6.24215">
        <ele>836.9</ele>
        <time>2020-09-27T10:52:38Z</time>
      </trkpt>
      <trkpt lat="43.93322" lon="6.24213">
        <ele>837.2</ele>
        <time>2020-09-27T10:52:47Z</time>
      </trkpt>
      <trkpt lat="43.93327" lon="6.24213">
        <ele>837.5</ele>
        <time>2020-09-27T10:52:55Z</time>
      </trkpt>
      <trkpt lat="43.93333" lon="6.24212">
        <ele>838.2</ele>
        <time>2020-09-27T10:53:04Z</time>
      </trkpt>
      <trkpt lat="43.93337" lon="6.24213">
        <ele>838.8</ele>
        <time>2020-09-27T10:53:13Z</time>
      </trkpt>
      <trkpt lat="43.93344" lon="6.24212">
        <ele>839</ele>
        <time>2020-09-27T10:53:23Z</time>
      </trkpt>
      <trkpt lat="43.9335" lon="6.24212">
        <ele>839</ele>
        <time>2020-09-27T10:53:27Z</time>
      </trkpt>
      <trkpt lat="43.93356" lon="6.24211">
        <ele>839</ele>
        <time>2020-09-27T10:53:31Z</time>
      </trkpt>
      <trkpt lat="43.93364" lon="6.24212">
        <ele>840</ele>
        <time>2020-09-27T10:53:39Z</time>
      </trkpt>
      <trkpt lat="43.9337" lon="6.24211">
        <ele>841.3</ele>
        <time>2020-09-27T10:53:46Z</time>
      </trkpt>
      <trkpt lat="43.93372" lon="6.24217">
        <ele>841.7</ele>
        <time>2020-09-27T10:53:51Z</time>
      </trkpt>
      <trkpt lat="43.93376" lon="6.2422">
        <ele>842.1</ele>
        <time>2020-09-27T10:53:56Z</time>
      </trkpt>
      <trkpt lat="43.93381" lon="6.2422">
        <ele>842.5</ele>
        <time>2020-09-27T10:54:02Z</time>
      </trkpt>
      <trkpt lat="43.93386" lon="6.24219">
        <ele>843</ele>
        <time>2020-09-27T10:54:08Z</time>
      </trkpt>
      <trkpt lat="43.93391" lon="6.24218">
        <ele>843.4</ele>
        <time>2020-09-27T10:54:13Z</time>
      </trkpt>
      <trkpt lat="43.93396" lon="6.24218">
        <ele>843.6</ele>
        <time>2020-09-27T10:54:17Z</time>
      </trkpt>
      <trkpt lat="43.934" lon="6.24217">
        <ele>843.9</ele>
        <time>2020-09-27T10:54:22Z</time>
      </trkpt>
      <trkpt lat="43.93406" lon="6.24213">
        <ele>844.1</ele>
        <time>2020-09-27T10:54:30Z</time>
      </trkpt>
      <trkpt lat="43.93411" lon="6.2421">
        <ele>844.2</ele>
        <time>2020-09-27T10:54:37Z</time>
      </trkpt>
      <trkpt lat="43.93415" lon="6.24207">
        <ele>844.3</ele>
        <time>2020-09-27T10:54:41Z</time>
      </trkpt>
      <trkpt lat="43.9342" lon="6.24206">
        <ele>844.5</ele>
        <time>2020-09-27T10:54:46Z</time>
      </trkpt>
      <trkpt lat="43.93424" lon="6.24204">
        <ele>844.7</ele>
        <time>2020-09-27T10:54:50Z</time>
      </trkpt>
      <trkpt lat="43.93428" lon="6.24199">
        <ele>844</ele>
        <time>2020-09-27T10:54:55Z</time>
      </trkpt>
      <trkpt lat="43.93432" lon="6.24194">
        <ele>845</ele>
        <time>2020-09-27T10:54:59Z</time>
      </trkpt>
      <trkpt lat="43.93437" lon="6.24189">
        <ele>845</ele>
        <time>2020-09-27T10:55:03Z</time>
      </trkpt>
      <trkpt lat="43.93439" lon="6.24184">
        <ele>846</ele>
        <time>2020-09-27T10:55:12Z</time>
      </trkpt>
      <trkpt lat="43.93444" lon="6.24181">
        <ele>846</ele>
        <time>2020-09-27T10:55:16Z</time>
      </trkpt>
      <trkpt lat="43.93449" lon="6.24177">
        <ele>847</ele>
        <time>2020-09-27T10:55:20Z</time>
      </trkpt>
      <trkpt lat="43.93453" lon="6.24179">
        <ele>847.4</ele>
        <time>2020-09-27T10:55:27Z</time>
      </trkpt>
      <trkpt lat="43.93458" lon="6.24179">
        <ele>847.7</ele>
        <time>2020-09-27T10:55:33Z</time>
      </trkpt>
      <trkpt lat="43.93461" lon="6.24173">
        <ele>847</ele>
        <time>2020-09-27T10:55:39Z</time>
      </trkpt>
      <trkpt lat="43.93468" lon="6.24171">
        <ele>848</ele>
        <time>2020-09-27T10:55:47Z</time>
      </trkpt>
      <trkpt lat="43.93475" lon="6.24173">
        <ele>849</ele>
        <time>2020-09-27T10:55:55Z</time>
      </trkpt>
      <trkpt lat="43.9348" lon="6.24174">
        <ele>849</ele>
        <time>2020-09-27T10:55:59Z</time>
      </trkpt>
      <trkpt lat="43.93489" lon="6.24172">
        <ele>850</ele>
        <time>2020-09-27T10:56:07Z</time>
      </trkpt>
      <trkpt lat="43.93497" lon="6.24174">
        <ele>850</ele>
        <time>2020-09-27T10:56:15Z</time>
      </trkpt>
      <trkpt lat="43.93505" lon="6.24178">
        <ele>851</ele>
        <time>2020-09-27T10:56:23Z</time>
      </trkpt>
      <trkpt lat="43.9351" lon="6.24179">
        <ele>852</ele>
        <time>2020-09-27T10:56:31Z</time>
      </trkpt>
      <trkpt lat="43.93513" lon="6.24186">
        <ele>852</ele>
        <time>2020-09-27T10:56:43Z</time>
      </trkpt>
      <trkpt lat="43.93522" lon="6.24196">
        <ele>853</ele>
        <time>2020-09-27T10:56:57Z</time>
      </trkpt>
      <trkpt lat="43.93528" lon="6.24197">
        <ele>854</ele>
        <time>2020-09-27T10:58:11Z</time>
      </trkpt>
      <trkpt lat="43.93532" lon="6.24193">
        <ele>854</ele>
        <time>2020-09-27T10:58:15Z</time>
      </trkpt>
      <trkpt lat="43.93537" lon="6.24192">
        <ele>855</ele>
        <time>2020-09-27T10:58:19Z</time>
      </trkpt>
      <trkpt lat="43.93545" lon="6.24193">
        <ele>855</ele>
        <time>2020-09-27T10:58:27Z</time>
      </trkpt>
      <trkpt lat="43.93548" lon="6.24198">
        <ele>856.5</ele>
        <time>2020-09-27T10:59:00Z</time>
      </trkpt>
      <trkpt lat="43.93545" lon="6.24204">
        <ele>856.6</ele>
        <time>2020-09-27T11:00:20Z</time>
      </trkpt>
      <trkpt lat="43.9355" lon="6.24203">
        <ele>856.6</ele>
        <time>2020-09-27T11:00:26Z</time>
      </trkpt>
      <trkpt lat="43.93554" lon="6.24198">
        <ele>856.8</ele>
        <time>2020-09-27T11:00:32Z</time>
      </trkpt>
      <trkpt lat="43.93559" lon="6.24196">
        <ele>857.3</ele>
        <time>2020-09-27T11:00:37Z</time>
      </trkpt>
      <trkpt lat="43.93564" lon="6.24193">
        <ele>857.6</ele>
        <time>2020-09-27T11:00:42Z</time>
      </trkpt>
      <trkpt lat="43.93568" lon="6.24189">
        <ele>857.9</ele>
        <time>2020-09-27T11:00:48Z</time>
      </trkpt>
      <trkpt lat="43.93572" lon="6.24186">
        <ele>858.1</ele>
        <time>2020-09-27T11:00:54Z</time>
      </trkpt>
      <trkpt lat="43.93576" lon="6.24182">
        <ele>858.2</ele>
        <time>2020-09-27T11:00:59Z</time>
      </trkpt>
      <trkpt lat="43.9358" lon="6.24179">
        <ele>858.3</ele>
        <time>2020-09-27T11:01:06Z</time>
      </trkpt>
      <trkpt lat="43.93585" lon="6.24178">
        <ele>858.8</ele>
        <time>2020-09-27T11:01:14Z</time>
      </trkpt>
      <trkpt lat="43.93587" lon="6.24171">
        <ele>859.1</ele>
        <time>2020-09-27T11:01:19Z</time>
      </trkpt>
      <trkpt lat="43.93588" lon="6.24165">
        <ele>859.4</ele>
        <time>2020-09-27T11:01:26Z</time>
      </trkpt>
      <trkpt lat="43.93591" lon="6.24159">
        <ele>859.6</ele>
        <time>2020-09-27T11:01:32Z</time>
      </trkpt>
      <trkpt lat="43.93595" lon="6.24154">
        <ele>859.7</ele>
        <time>2020-09-27T11:01:36Z</time>
      </trkpt>
      <trkpt lat="43.93599" lon="6.24152">
        <ele>859.8</ele>
        <time>2020-09-27T11:01:41Z</time>
      </trkpt>
      <trkpt lat="43.93602" lon="6.24147">
        <ele>860</ele>
        <time>2020-09-27T11:01:51Z</time>
      </trkpt>
      <trkpt lat="43.93607" lon="6.24148">
        <ele>860.4</ele>
        <time>2020-09-27T11:01:58Z</time>
      </trkpt>
      <trkpt lat="43.9361" lon="6.24142">
        <ele>860.8</ele>
        <time>2020-09-27T11:02:06Z</time>
      </trkpt>
      <trkpt lat="43.93614" lon="6.2414">
        <ele>860.9</ele>
        <time>2020-09-27T11:02:10Z</time>
      </trkpt>
      <trkpt lat="43.9362" lon="6.24138">
        <ele>861</ele>
        <time>2020-09-27T11:02:13Z</time>
      </trkpt>
      <trkpt lat="43.93623" lon="6.24135">
        <ele>861.1</ele>
        <time>2020-09-27T11:02:19Z</time>
      </trkpt>
      <trkpt lat="43.93628" lon="6.2413">
        <ele>861.5</ele>
        <time>2020-09-27T11:02:24Z</time>
      </trkpt>
      <trkpt lat="43.93632" lon="6.24128">
        <ele>861.8</ele>
        <time>2020-09-27T11:02:27Z</time>
      </trkpt>
      <trkpt lat="43.93637" lon="6.24128">
        <ele>861.9</ele>
        <time>2020-09-27T11:02:30Z</time>
      </trkpt>
      <trkpt lat="43.93642" lon="6.24127">
        <ele>862</ele>
        <time>2020-09-27T11:02:33Z</time>
      </trkpt>
      <trkpt lat="43.93647" lon="6.24127">
        <ele>862.2</ele>
        <time>2020-09-27T11:02:38Z</time>
      </trkpt>
      <trkpt lat="43.93649" lon="6.2412">
        <ele>862.2</ele>
        <time>2020-09-27T11:02:42Z</time>
      </trkpt>
      <trkpt lat="43.9365" lon="6.24113">
        <ele>862.4</ele>
        <time>2020-09-27T11:02:45Z</time>
      </trkpt>
      <trkpt lat="43.93653" lon="6.24107">
        <ele>862.5</ele>
        <time>2020-09-27T11:02:49Z</time>
      </trkpt>
      <trkpt lat="43.93655" lon="6.241">
        <ele>862.8</ele>
        <time>2020-09-27T11:02:54Z</time>
      </trkpt>
      <trkpt lat="43.93657" lon="6.24093">
        <ele>863.1</ele>
        <time>2020-09-27T11:02:59Z</time>
      </trkpt>
      <trkpt lat="43.93657" lon="6.24086">
        <ele>863.4</ele>
        <time>2020-09-27T11:03:04Z</time>
      </trkpt>
      <trkpt lat="43.93656" lon="6.2408">
        <ele>863.6</ele>
        <time>2020-09-27T11:03:08Z</time>
      </trkpt>
      <trkpt lat="43.93656" lon="6.24073">
        <ele>863.8</ele>
        <time>2020-09-27T11:03:12Z</time>
      </trkpt>
      <trkpt lat="43.93656" lon="6.24066">
        <ele>864</ele>
        <time>2020-09-27T11:03:16Z</time>
      </trkpt>
      <trkpt lat="43.93657" lon="6.24058">
        <ele>864.3</ele>
        <time>2020-09-27T11:03:20Z</time>
      </trkpt>
      <trkpt lat="43.93657" lon="6.24051">
        <ele>864.6</ele>
        <time>2020-09-27T11:03:25Z</time>
      </trkpt>
      <trkpt lat="43.9366" lon="6.24046">
        <ele>864</ele>
        <time>2020-09-27T11:03:29Z</time>
      </trkpt>
      <trkpt lat="43.93661" lon="6.24039">
        <ele>865.4</ele>
        <time>2020-09-27T11:03:34Z</time>
      </trkpt>
      <trkpt lat="43.93662" lon="6.24032">
        <ele>865.8</ele>
        <time>2020-09-27T11:03:39Z</time>
      </trkpt>
      <trkpt lat="43.93666" lon="6.24027">
        <ele>866.1</ele>
        <time>2020-09-27T11:03:46Z</time>
      </trkpt>
      <trkpt lat="43.9367" lon="6.24026">
        <ele>866.3</ele>
        <time>2020-09-27T11:03:49Z</time>
      </trkpt>
      <trkpt lat="43.93674" lon="6.24021">
        <ele>866.5</ele>
        <time>2020-09-27T11:03:53Z</time>
      </trkpt>
      <trkpt lat="43.93676" lon="6.24014">
        <ele>866.8</ele>
        <time>2020-09-27T11:03:57Z</time>
      </trkpt>
      <trkpt lat="43.93678" lon="6.24008">
        <ele>867.1</ele>
        <time>2020-09-27T11:04:01Z</time>
      </trkpt>
      <trkpt lat="43.9368" lon="6.24002">
        <ele>867.4</ele>
        <time>2020-09-27T11:04:05Z</time>
      </trkpt>
      <trkpt lat="43.93682" lon="6.23997">
        <ele>867.6</ele>
        <time>2020-09-27T11:04:09Z</time>
      </trkpt>
      <trkpt lat="43.93683" lon="6.23989">
        <ele>867.8</ele>
        <time>2020-09-27T11:04:13Z</time>
      </trkpt>
      <trkpt lat="43.93685" lon="6.23983">
        <ele>868.1</ele>
        <time>2020-09-27T11:04:18Z</time>
      </trkpt>
      <trkpt lat="43.93689" lon="6.23981">
        <ele>868.6</ele>
        <time>2020-09-27T11:04:25Z</time>
      </trkpt>
      <trkpt lat="43.93691" lon="6.23975">
        <ele>869.3</ele>
        <time>2020-09-27T11:04:33Z</time>
      </trkpt>
      <trkpt lat="43.93695" lon="6.23973">
        <ele>869.7</ele>
        <time>2020-09-27T11:04:39Z</time>
      </trkpt>
      <trkpt lat="43.937" lon="6.23971">
        <ele>869.8</ele>
        <time>2020-09-27T11:04:43Z</time>
      </trkpt>
      <trkpt lat="43.93701" lon="6.23965">
        <ele>869.9</ele>
        <time>2020-09-27T11:04:46Z</time>
      </trkpt>
      <trkpt lat="43.93704" lon="6.23959">
        <ele>870.1</ele>
        <time>2020-09-27T11:04:50Z</time>
      </trkpt>
      <trkpt lat="43.93707" lon="6.23952">
        <ele>870.4</ele>
        <time>2020-09-27T11:04:54Z</time>
      </trkpt>
      <trkpt lat="43.93709" lon="6.23946">
        <ele>870.7</ele>
        <time>2020-09-27T11:04:59Z</time>
      </trkpt>
      <trkpt lat="43.93714" lon="6.23945">
        <ele>871</ele>
        <time>2020-09-27T11:05:03Z</time>
      </trkpt>
      <trkpt lat="43.93719" lon="6.23942">
        <ele>871.4</ele>
        <time>2020-09-27T11:05:09Z</time>
      </trkpt>
      <trkpt lat="43.93723" lon="6.23936">
        <ele>871.5</ele>
        <time>2020-09-27T11:05:13Z</time>
      </trkpt>
      <trkpt lat="43.93724" lon="6.2393">
        <ele>871.7</ele>
        <time>2020-09-27T11:05:17Z</time>
      </trkpt>
      <trkpt lat="43.93723" lon="6.23921">
        <ele>871</ele>
        <time>2020-09-27T11:05:21Z</time>
      </trkpt>
      <trkpt lat="43.93723" lon="6.23915">
        <ele>872.2</ele>
        <time>2020-09-27T11:05:26Z</time>
      </trkpt>
      <trkpt lat="43.93721" lon="6.23908">
        <ele>872.7</ele>
        <time>2020-09-27T11:05:31Z</time>
      </trkpt>
      <trkpt lat="43.9372" lon="6.23901">
        <ele>873</ele>
        <time>2020-09-27T11:05:36Z</time>
      </trkpt>
      <trkpt lat="43.93719" lon="6.23894">
        <ele>873.4</ele>
        <time>2020-09-27T11:05:41Z</time>
      </trkpt>
      <trkpt lat="43.93716" lon="6.23888">
        <ele>873.9</ele>
        <time>2020-09-27T11:05:46Z</time>
      </trkpt>
      <trkpt lat="43.93712" lon="6.23882">
        <ele>874.4</ele>
        <time>2020-09-27T11:05:52Z</time>
      </trkpt>
      <trkpt lat="43.93711" lon="6.23875">
        <ele>874</ele>
        <time>2020-09-27T11:05:58Z</time>
      </trkpt>
      <trkpt lat="43.9371" lon="6.23867">
        <ele>875</ele>
        <time>2020-09-27T11:06:02Z</time>
      </trkpt>
      <trkpt lat="43.93706" lon="6.23861">
        <ele>875</ele>
        <time>2020-09-27T11:06:06Z</time>
      </trkpt>
      <trkpt lat="43.93703" lon="6.23856">
        <ele>876</ele>
        <time>2020-09-27T11:06:22Z</time>
      </trkpt>
      <trkpt lat="43.93697" lon="6.23857">
        <ele>877</ele>
        <time>2020-09-27T11:06:38Z</time>
      </trkpt>
      <trkpt lat="43.93704" lon="6.23857">
        <ele>877</ele>
        <time>2020-09-27T11:06:46Z</time>
      </trkpt>
      <trkpt lat="43.93709" lon="6.23857">
        <ele>877</ele>
        <time>2020-09-27T11:06:58Z</time>
      </trkpt>
      <trkpt lat="43.93703" lon="6.23855">
        <ele>877</ele>
        <time>2020-09-27T11:07:06Z</time>
      </trkpt>
      <trkpt lat="43.93695" lon="6.23855">
        <ele>877</ele>
        <time>2020-09-27T11:07:12Z</time>
      </trkpt>
      <trkpt lat="43.93691" lon="6.23856">
        <ele>877</ele>
        <time>2020-09-27T11:07:18Z</time>
      </trkpt>
      <trkpt lat="43.93691" lon="6.23863">
        <ele>878</ele>
        <time>2020-09-27T11:07:22Z</time>
      </trkpt>
      <trkpt lat="43.93689" lon="6.23852">
        <ele>878</ele>
        <time>2020-09-27T11:07:34Z</time>
      </trkpt>
      <trkpt lat="43.93691" lon="6.23847">
        <ele>878</ele>
        <time>2020-09-27T11:07:38Z</time>
      </trkpt>
      <trkpt lat="43.93694" lon="6.23841">
        <ele>878</ele>
        <time>2020-09-27T11:07:46Z</time>
      </trkpt>
      <trkpt lat="43.93693" lon="6.23834">
        <ele>878</ele>
        <time>2020-09-27T11:07:54Z</time>
      </trkpt>
      <trkpt lat="43.93693" lon="6.23826">
        <ele>878</ele>
        <time>2020-09-27T11:08:02Z</time>
      </trkpt>
      <trkpt lat="43.93687" lon="6.23816">
        <ele>878</ele>
        <time>2020-09-27T11:08:12Z</time>
      </trkpt>
      <trkpt lat="43.93682" lon="6.23809">
        <ele>879</ele>
        <time>2020-09-27T11:08:18Z</time>
      </trkpt>
      <trkpt lat="43.93682" lon="6.238">
        <ele>879</ele>
        <time>2020-09-27T11:08:30Z</time>
      </trkpt>
      <trkpt lat="43.93682" lon="6.23789">
        <ele>880</ele>
        <time>2020-09-27T11:08:38Z</time>
      </trkpt>
      <trkpt lat="43.93684" lon="6.23777">
        <ele>880</ele>
        <time>2020-09-27T11:08:46Z</time>
      </trkpt>
      <trkpt lat="43.93687" lon="6.23768">
        <ele>881</ele>
        <time>2020-09-27T11:08:54Z</time>
      </trkpt>
      <trkpt lat="43.93686" lon="6.23759">
        <ele>882</ele>
        <time>2020-09-27T11:09:02Z</time>
      </trkpt>
      <trkpt lat="43.93681" lon="6.23751">
        <ele>883</ele>
        <time>2020-09-27T11:09:10Z</time>
      </trkpt>
      <trkpt lat="43.93681" lon="6.2374">
        <ele>884</ele>
        <time>2020-09-27T11:09:18Z</time>
      </trkpt>
      <trkpt lat="43.93681" lon="6.23733">
        <ele>884</ele>
        <time>2020-09-27T11:09:22Z</time>
      </trkpt>
      <trkpt lat="43.93683" lon="6.23723">
        <ele>885</ele>
        <time>2020-09-27T11:09:30Z</time>
      </trkpt>
      <trkpt lat="43.93684" lon="6.23716">
        <ele>885</ele>
        <time>2020-09-27T11:09:38Z</time>
      </trkpt>
      <trkpt lat="43.9369" lon="6.23717">
        <ele>887</ele>
        <time>2020-09-27T11:10:14Z</time>
      </trkpt>
      <trkpt lat="43.93685" lon="6.23714">
        <ele>887</ele>
        <time>2020-09-27T11:10:22Z</time>
      </trkpt>
      <trkpt lat="43.93684" lon="6.23707">
        <ele>887</ele>
        <time>2020-09-27T11:11:25Z</time>
      </trkpt>
      <trkpt lat="43.93689" lon="6.23701">
        <ele>888</ele>
        <time>2020-09-27T11:12:01Z</time>
      </trkpt>
      <trkpt lat="43.93692" lon="6.23696">
        <ele>888</ele>
        <time>2020-09-27T11:12:09Z</time>
      </trkpt>
      <trkpt lat="43.93697" lon="6.23691">
        <ele>888</ele>
        <time>2020-09-27T11:12:17Z</time>
      </trkpt>
      <trkpt lat="43.93702" lon="6.23688">
        <ele>889</ele>
        <time>2020-09-27T11:12:25Z</time>
      </trkpt>
      <trkpt lat="43.93707" lon="6.23686">
        <ele>889.5</ele>
        <time>2020-09-27T11:12:31Z</time>
      </trkpt>
      <trkpt lat="43.9371" lon="6.23681">
        <ele>889.8</ele>
        <time>2020-09-27T11:12:39Z</time>
      </trkpt>
      <trkpt lat="43.93715" lon="6.23681">
        <ele>890.5</ele>
        <time>2020-09-27T11:12:51Z</time>
      </trkpt>
      <trkpt lat="43.93719" lon="6.23677">
        <ele>892.2</ele>
        <time>2020-09-27T11:14:20Z</time>
      </trkpt>
      <trkpt lat="43.93723" lon="6.23678">
        <ele>892.4</ele>
        <time>2020-09-27T11:15:19Z</time>
      </trkpt>
      <trkpt lat="43.93723" lon="6.23671">
        <ele>893.2</ele>
        <time>2020-09-27T11:15:58Z</time>
      </trkpt>
      <trkpt lat="43.93727" lon="6.23673">
        <ele>893.4</ele>
        <time>2020-09-27T11:16:13Z</time>
      </trkpt>
      <trkpt lat="43.93725" lon="6.23668">
        <ele>893.4</ele>
        <time>2020-09-27T11:16:54Z</time>
      </trkpt>
      <trkpt lat="43.93729" lon="6.23664">
        <ele>893.3</ele>
        <time>2020-09-27T11:17:59Z</time>
      </trkpt>
      <trkpt lat="43.93733" lon="6.23661">
        <ele>893.3</ele>
        <time>2020-09-27T11:18:09Z</time>
      </trkpt>
      <trkpt lat="43.93737" lon="6.23656">
        <ele>893.5</ele>
        <time>2020-09-27T11:18:16Z</time>
      </trkpt>
      <trkpt lat="43.93741" lon="6.23653">
        <ele>893.8</ele>
        <time>2020-09-27T11:18:22Z</time>
      </trkpt>
      <trkpt lat="43.93746" lon="6.2365">
        <ele>894.2</ele>
        <time>2020-09-27T11:18:29Z</time>
      </trkpt>
      <trkpt lat="43.9375" lon="6.23647">
        <ele>894.9</ele>
        <time>2020-09-27T11:18:36Z</time>
      </trkpt>
      <trkpt lat="43.93755" lon="6.23643">
        <ele>895.6</ele>
        <time>2020-09-27T11:18:43Z</time>
      </trkpt>
      <trkpt lat="43.93758" lon="6.23637">
        <ele>896.1</ele>
        <time>2020-09-27T11:18:49Z</time>
      </trkpt>
      <trkpt lat="43.93761" lon="6.23631">
        <ele>896.4</ele>
        <time>2020-09-27T11:18:54Z</time>
      </trkpt>
      <trkpt lat="43.93764" lon="6.23626">
        <ele>896.8</ele>
        <time>2020-09-27T11:18:59Z</time>
      </trkpt>
      <trkpt lat="43.93766" lon="6.23619">
        <ele>897.1</ele>
        <time>2020-09-27T11:19:04Z</time>
      </trkpt>
      <trkpt lat="43.93767" lon="6.23612">
        <ele>897.6</ele>
        <time>2020-09-27T11:19:10Z</time>
      </trkpt>
      <trkpt lat="43.93769" lon="6.23606">
        <ele>897.8</ele>
        <time>2020-09-27T11:19:15Z</time>
      </trkpt>
      <trkpt lat="43.93767" lon="6.236">
        <ele>898.2</ele>
        <time>2020-09-27T11:19:21Z</time>
      </trkpt>
      <trkpt lat="43.93764" lon="6.23591">
        <ele>898</ele>
        <time>2020-09-27T11:19:28Z</time>
      </trkpt>
      <trkpt lat="43.93761" lon="6.23587">
        <ele>899</ele>
        <time>2020-09-27T11:19:33Z</time>
      </trkpt>
      <trkpt lat="43.93763" lon="6.2358">
        <ele>899.3</ele>
        <time>2020-09-27T11:19:39Z</time>
      </trkpt>
      <trkpt lat="43.93763" lon="6.23573">
        <ele>899.6</ele>
        <time>2020-09-27T11:19:44Z</time>
      </trkpt>
      <trkpt lat="43.93763" lon="6.23566">
        <ele>900</ele>
        <time>2020-09-27T11:19:50Z</time>
      </trkpt>
      <trkpt lat="43.93763" lon="6.2356">
        <ele>900.4</ele>
        <time>2020-09-27T11:19:56Z</time>
      </trkpt>
      <trkpt lat="43.93762" lon="6.23552">
        <ele>900.8</ele>
        <time>2020-09-27T11:20:07Z</time>
      </trkpt>
      <trkpt lat="43.93765" lon="6.23546">
        <ele>901.3</ele>
        <time>2020-09-27T11:20:13Z</time>
      </trkpt>
      <trkpt lat="43.93766" lon="6.2354">
        <ele>901.6</ele>
        <time>2020-09-27T11:20:18Z</time>
      </trkpt>
      <trkpt lat="43.93772" lon="6.23536">
        <ele>901.9</ele>
        <time>2020-09-27T11:20:24Z</time>
      </trkpt>
      <trkpt lat="43.93777" lon="6.23535">
        <ele>902.1</ele>
        <time>2020-09-27T11:20:28Z</time>
      </trkpt>
      <trkpt lat="43.93774" lon="6.2354">
        <ele>902.5</ele>
        <time>2020-09-27T11:20:44Z</time>
      </trkpt>
      <trkpt lat="43.9377" lon="6.23536">
        <ele>902.8</ele>
        <time>2020-09-27T11:21:02Z</time>
      </trkpt>
      <trkpt lat="43.93774" lon="6.23532">
        <ele>903.5</ele>
        <time>2020-09-27T11:21:46Z</time>
      </trkpt>
      <trkpt lat="43.93779" lon="6.2353">
        <ele>903.5</ele>
        <time>2020-09-27T11:21:55Z</time>
      </trkpt>
      <trkpt lat="43.93782" lon="6.23524">
        <ele>903.1</ele>
        <time>2020-09-27T11:22:02Z</time>
      </trkpt>
      <trkpt lat="43.93786" lon="6.23519">
        <ele>902.6</ele>
        <time>2020-09-27T11:22:07Z</time>
      </trkpt>
      <trkpt lat="43.93788" lon="6.23513">
        <ele>901.8</ele>
        <time>2020-09-27T11:22:15Z</time>
      </trkpt>
      <trkpt lat="43.93792" lon="6.23509">
        <ele>901.1</ele>
        <time>2020-09-27T11:22:22Z</time>
      </trkpt>
      <trkpt lat="43.93796" lon="6.23506">
        <ele>900.4</ele>
        <time>2020-09-27T11:22:29Z</time>
      </trkpt>
      <trkpt lat="43.93801" lon="6.23503">
        <ele>899.2</ele>
        <time>2020-09-27T11:22:36Z</time>
      </trkpt>
      <trkpt lat="43.93805" lon="6.23499">
        <ele>898.4</ele>
        <time>2020-09-27T11:22:41Z</time>
      </trkpt>
      <trkpt lat="43.9381" lon="6.23497">
        <ele>897.5</ele>
        <time>2020-09-27T11:22:48Z</time>
      </trkpt>
      <trkpt lat="43.93812" lon="6.2349">
        <ele>896.7</ele>
        <time>2020-09-27T11:22:54Z</time>
      </trkpt>
      <trkpt lat="43.93814" lon="6.23484">
        <ele>896</ele>
        <time>2020-09-27T11:22:59Z</time>
      </trkpt>
      <trkpt lat="43.93814" lon="6.23477">
        <ele>895.2</ele>
        <time>2020-09-27T11:23:04Z</time>
      </trkpt>
      <trkpt lat="43.93814" lon="6.23469">
        <ele>894</ele>
        <time>2020-09-27T11:23:12Z</time>
      </trkpt>
      <trkpt lat="43.93811" lon="6.23463">
        <ele>893.4</ele>
        <time>2020-09-27T11:23:17Z</time>
      </trkpt>
      <trkpt lat="43.93809" lon="6.23457">
        <ele>892.3</ele>
        <time>2020-09-27T11:23:25Z</time>
      </trkpt>
      <trkpt lat="43.93809" lon="6.23451">
        <ele>890.5</ele>
        <time>2020-09-27T11:23:36Z</time>
      </trkpt>
      <trkpt lat="43.9381" lon="6.23444">
        <ele>889.6</ele>
        <time>2020-09-27T11:23:42Z</time>
      </trkpt>
      <trkpt lat="43.93813" lon="6.23438">
        <ele>888.9</ele>
        <time>2020-09-27T11:23:48Z</time>
      </trkpt>
      <trkpt lat="43.93815" lon="6.23432">
        <ele>888.1</ele>
        <time>2020-09-27T11:23:55Z</time>
      </trkpt>
      <trkpt lat="43.93817" lon="6.23426">
        <ele>887.3</ele>
        <time>2020-09-27T11:24:02Z</time>
      </trkpt>
      <trkpt lat="43.9382" lon="6.2342">
        <ele>886.3</ele>
        <time>2020-09-27T11:24:10Z</time>
      </trkpt>
      <trkpt lat="43.93821" lon="6.23414">
        <ele>885.5</ele>
        <time>2020-09-27T11:24:15Z</time>
      </trkpt>
      <trkpt lat="43.93823" lon="6.23408">
        <ele>884.1</ele>
        <time>2020-09-27T11:24:23Z</time>
      </trkpt>
      <trkpt lat="43.93827" lon="6.23403">
        <ele>883.4</ele>
        <time>2020-09-27T11:24:26Z</time>
      </trkpt>
      <trkpt lat="43.93831" lon="6.23399">
        <ele>882.8</ele>
        <time>2020-09-27T11:24:29Z</time>
      </trkpt>
      <trkpt lat="43.93833" lon="6.23393">
        <ele>881.8</ele>
        <time>2020-09-27T11:24:35Z</time>
      </trkpt>
      <trkpt lat="43.93835" lon="6.23387">
        <ele>880.9</ele>
        <time>2020-09-27T11:24:41Z</time>
      </trkpt>
      <trkpt lat="43.93834" lon="6.23379">
        <ele>879.7</ele>
        <time>2020-09-27T11:24:47Z</time>
      </trkpt>
      <trkpt lat="43.93835" lon="6.23372">
        <ele>878.9</ele>
        <time>2020-09-27T11:24:51Z</time>
      </trkpt>
      <trkpt lat="43.93835" lon="6.23365">
        <ele>878.2</ele>
        <time>2020-09-27T11:24:55Z</time>
      </trkpt>
      <trkpt lat="43.93837" lon="6.23358">
        <ele>877.3</ele>
        <time>2020-09-27T11:25:01Z</time>
      </trkpt>
      <trkpt lat="43.93838" lon="6.2335">
        <ele>876.8</ele>
        <time>2020-09-27T11:25:05Z</time>
      </trkpt>
      <trkpt lat="43.93838" lon="6.23343">
        <ele>876</ele>
        <time>2020-09-27T11:25:10Z</time>
      </trkpt>
      <trkpt lat="43.93835" lon="6.23337">
        <ele>875</ele>
        <time>2020-09-27T11:25:15Z</time>
      </trkpt>
      <trkpt lat="43.93837" lon="6.23331">
        <ele>874.1</ele>
        <time>2020-09-27T11:25:20Z</time>
      </trkpt>
      <trkpt lat="43.93839" lon="6.23326">
        <ele>872.6</ele>
        <time>2020-09-27T11:25:28Z</time>
      </trkpt>
      <trkpt lat="43.93839" lon="6.23319">
        <ele>871.8</ele>
        <time>2020-09-27T11:25:33Z</time>
      </trkpt>
      <trkpt lat="43.93836" lon="6.23314">
        <ele>870.4</ele>
        <time>2020-09-27T11:25:46Z</time>
      </trkpt>
      <trkpt lat="43.9384" lon="6.23318">
        <ele>869.6</ele>
        <time>2020-09-27T11:26:01Z</time>
      </trkpt>
      <trkpt lat="43.9384" lon="6.23324">
        <ele>869.5</ele>
        <time>2020-09-27T11:26:07Z</time>
      </trkpt>
      <trkpt lat="43.93845" lon="6.2332">
        <ele>869</ele>
        <time>2020-09-27T11:26:24Z</time>
      </trkpt>
      <trkpt lat="43.93848" lon="6.23325">
        <ele>868.6</ele>
        <time>2020-09-27T11:26:35Z</time>
      </trkpt>
      <trkpt lat="43.93853" lon="6.23326">
        <ele>867.8</ele>
        <time>2020-09-27T11:26:44Z</time>
      </trkpt>
      <trkpt lat="43.93857" lon="6.23325">
        <ele>867</ele>
        <time>2020-09-27T11:26:51Z</time>
      </trkpt>
      <trkpt lat="43.93862" lon="6.23323">
        <ele>866.1</ele>
        <time>2020-09-27T11:26:59Z</time>
      </trkpt>
      <trkpt lat="43.93867" lon="6.23321">
        <ele>865.4</ele>
        <time>2020-09-27T11:27:05Z</time>
      </trkpt>
      <trkpt lat="43.93872" lon="6.23319">
        <ele>864.7</ele>
        <time>2020-09-27T11:27:10Z</time>
      </trkpt>
      <trkpt lat="43.93877" lon="6.23317">
        <ele>863.9</ele>
        <time>2020-09-27T11:27:16Z</time>
      </trkpt>
      <trkpt lat="43.93881" lon="6.23317">
        <ele>862.7</ele>
        <time>2020-09-27T11:27:24Z</time>
      </trkpt>
      <trkpt lat="43.93886" lon="6.23318">
        <ele>861.7</ele>
        <time>2020-09-27T11:27:31Z</time>
      </trkpt>
      <trkpt lat="43.93891" lon="6.23315">
        <ele>860</ele>
        <time>2020-09-27T11:27:37Z</time>
      </trkpt>
      <trkpt lat="43.93896" lon="6.23315">
        <ele>860.3</ele>
        <time>2020-09-27T11:27:43Z</time>
      </trkpt>
      <trkpt lat="43.93901" lon="6.23315">
        <ele>859.7</ele>
        <time>2020-09-27T11:27:48Z</time>
      </trkpt>
      <trkpt lat="43.93906" lon="6.23317">
        <ele>859.1</ele>
        <time>2020-09-27T11:27:53Z</time>
      </trkpt>
      <trkpt lat="43.9391" lon="6.23315">
        <ele>858.5</ele>
        <time>2020-09-27T11:27:58Z</time>
      </trkpt>
      <trkpt lat="43.93915" lon="6.23317">
        <ele>857.6</ele>
        <time>2020-09-27T11:28:04Z</time>
      </trkpt>
      <trkpt lat="43.93918" lon="6.23321">
        <ele>856.5</ele>
        <time>2020-09-27T11:28:11Z</time>
      </trkpt>
      <trkpt lat="43.93922" lon="6.23326">
        <ele>855.6</ele>
        <time>2020-09-27T11:28:17Z</time>
      </trkpt>
      <trkpt lat="43.93926" lon="6.23325">
        <ele>855</ele>
        <time>2020-09-27T11:28:22Z</time>
      </trkpt>
      <trkpt lat="43.93931" lon="6.23324">
        <ele>854.3</ele>
        <time>2020-09-27T11:28:27Z</time>
      </trkpt>
      <trkpt lat="43.93937" lon="6.23325">
        <ele>853.3</ele>
        <time>2020-09-27T11:28:34Z</time>
      </trkpt>
      <trkpt lat="43.93942" lon="6.23325">
        <ele>852.4</ele>
        <time>2020-09-27T11:28:40Z</time>
      </trkpt>
      <trkpt lat="43.93947" lon="6.23326">
        <ele>851.6</ele>
        <time>2020-09-27T11:28:46Z</time>
      </trkpt>
      <trkpt lat="43.9395" lon="6.2333">
        <ele>851.1</ele>
        <time>2020-09-27T11:28:51Z</time>
      </trkpt>
      <trkpt lat="43.93956" lon="6.2333">
        <ele>850.2</ele>
        <time>2020-09-27T11:28:56Z</time>
      </trkpt>
      <trkpt lat="43.9396" lon="6.23329">
        <ele>849.5</ele>
        <time>2020-09-27T11:29:01Z</time>
      </trkpt>
      <trkpt lat="43.93965" lon="6.23329">
        <ele>848.9</ele>
        <time>2020-09-27T11:29:06Z</time>
      </trkpt>
      <trkpt lat="43.9397" lon="6.23332">
        <ele>848.3</ele>
        <time>2020-09-27T11:29:14Z</time>
      </trkpt>
      <trkpt lat="43.93974" lon="6.23335">
        <ele>847.9</ele>
        <time>2020-09-27T11:29:19Z</time>
      </trkpt>
      <trkpt lat="43.93979" lon="6.23336">
        <ele>847.3</ele>
        <time>2020-09-27T11:29:25Z</time>
      </trkpt>
      <trkpt lat="43.93984" lon="6.23338">
        <ele>846.7</ele>
        <time>2020-09-27T11:29:31Z</time>
      </trkpt>
      <trkpt lat="43.93989" lon="6.23339">
        <ele>846</ele>
        <time>2020-09-27T11:29:37Z</time>
      </trkpt>
      <trkpt lat="43.93993" lon="6.23341">
        <ele>845.5</ele>
        <time>2020-09-27T11:29:42Z</time>
      </trkpt>
      <trkpt lat="43.93997" lon="6.23344">
        <ele>844.9</ele>
        <time>2020-09-27T11:29:47Z</time>
      </trkpt>
      <trkpt lat="43.94001" lon="6.23347">
        <ele>843.8</ele>
        <time>2020-09-27T11:29:55Z</time>
      </trkpt>
      <trkpt lat="43.94004" lon="6.23353">
        <ele>843</ele>
        <time>2020-09-27T11:30:02Z</time>
      </trkpt>
      <trkpt lat="43.94008" lon="6.23357">
        <ele>842.2</ele>
        <time>2020-09-27T11:30:09Z</time>
      </trkpt>
      <trkpt lat="43.94013" lon="6.23359">
        <ele>841.4</ele>
        <time>2020-09-27T11:30:16Z</time>
      </trkpt>
      <trkpt lat="43.94017" lon="6.2336">
        <ele>840.8</ele>
        <time>2020-09-27T11:30:21Z</time>
      </trkpt>
      <trkpt lat="43.94022" lon="6.23361">
        <ele>840.1</ele>
        <time>2020-09-27T11:30:27Z</time>
      </trkpt>
      <trkpt lat="43.94027" lon="6.23363">
        <ele>839.3</ele>
        <time>2020-09-27T11:30:34Z</time>
      </trkpt>
      <trkpt lat="43.9403" lon="6.23368">
        <ele>838.3</ele>
        <time>2020-09-27T11:30:42Z</time>
      </trkpt>
      <trkpt lat="43.94034" lon="6.23371">
        <ele>837.6</ele>
        <time>2020-09-27T11:30:48Z</time>
      </trkpt>
      <trkpt lat="43.94038" lon="6.23376">
        <ele>836.7</ele>
        <time>2020-09-27T11:30:55Z</time>
      </trkpt>
      <trkpt lat="43.94044" lon="6.23376">
        <ele>835.9</ele>
        <time>2020-09-27T11:31:02Z</time>
      </trkpt>
      <trkpt lat="43.94049" lon="6.23374">
        <ele>834.8</ele>
        <time>2020-09-27T11:31:10Z</time>
      </trkpt>
      <trkpt lat="43.94054" lon="6.23375">
        <ele>834</ele>
        <time>2020-09-27T11:31:16Z</time>
      </trkpt>
      <trkpt lat="43.94058" lon="6.23378">
        <ele>833.3</ele>
        <time>2020-09-27T11:31:21Z</time>
      </trkpt>
      <trkpt lat="43.94063" lon="6.23381">
        <ele>832.4</ele>
        <time>2020-09-27T11:31:26Z</time>
      </trkpt>
      <trkpt lat="43.94068" lon="6.23383">
        <ele>831.5</ele>
        <time>2020-09-27T11:31:32Z</time>
      </trkpt>
      <trkpt lat="43.94072" lon="6.23387">
        <ele>830.9</ele>
        <time>2020-09-27T11:31:37Z</time>
      </trkpt>
      <trkpt lat="43.94076" lon="6.23391">
        <ele>830</ele>
        <time>2020-09-27T11:31:42Z</time>
      </trkpt>
      <trkpt lat="43.9408" lon="6.23396">
        <ele>828.7</ele>
        <time>2020-09-27T11:31:52Z</time>
      </trkpt>
      <trkpt lat="43.94083" lon="6.234">
        <ele>827.9</ele>
        <time>2020-09-27T11:31:58Z</time>
      </trkpt>
      <trkpt lat="43.94087" lon="6.23405">
        <ele>827.2</ele>
        <time>2020-09-27T11:32:03Z</time>
      </trkpt>
      <trkpt lat="43.94091" lon="6.23407">
        <ele>826.8</ele>
        <time>2020-09-27T11:32:07Z</time>
      </trkpt>
      <trkpt lat="43.94095" lon="6.23412">
        <ele>826</ele>
        <time>2020-09-27T11:32:13Z</time>
      </trkpt>
      <trkpt lat="43.94098" lon="6.23417">
        <ele>825.4</ele>
        <time>2020-09-27T11:32:19Z</time>
      </trkpt>
      <trkpt lat="43.94102" lon="6.23421">
        <ele>824.6</ele>
        <time>2020-09-27T11:32:26Z</time>
      </trkpt>
      <trkpt lat="43.94104" lon="6.23428">
        <ele>824.2</ele>
        <time>2020-09-27T11:32:32Z</time>
      </trkpt>
      <trkpt lat="43.94105" lon="6.23434">
        <ele>823.8</ele>
        <time>2020-09-27T11:32:36Z</time>
      </trkpt>
      <trkpt lat="43.94108" lon="6.23439">
        <ele>823.2</ele>
        <time>2020-09-27T11:32:41Z</time>
      </trkpt>
      <trkpt lat="43.94109" lon="6.23446">
        <ele>822.6</ele>
        <time>2020-09-27T11:32:47Z</time>
      </trkpt>
      <trkpt lat="43.9411" lon="6.23454">
        <ele>822.2</ele>
        <time>2020-09-27T11:32:52Z</time>
      </trkpt>
      <trkpt lat="43.94111" lon="6.23461">
        <ele>821.9</ele>
        <time>2020-09-27T11:32:57Z</time>
      </trkpt>
      <trkpt lat="43.94114" lon="6.23466">
        <ele>821.7</ele>
        <time>2020-09-27T11:33:02Z</time>
      </trkpt>
      <trkpt lat="43.94117" lon="6.23472">
        <ele>821.5</ele>
        <time>2020-09-27T11:33:08Z</time>
      </trkpt>
      <trkpt lat="43.9412" lon="6.23478">
        <ele>821.3</ele>
        <time>2020-09-27T11:33:13Z</time>
      </trkpt>
      <trkpt lat="43.94118" lon="6.23508">
        <ele>773.1</ele>
        <time>2020-09-27T11:33:54Z</time>
      </trkpt>
      <trkpt lat="43.9413" lon="6.23536">
        <ele>762.2</ele>
        <time>2020-09-27T11:34:16Z</time>
      </trkpt>
      <trkpt lat="43.94144" lon="6.23526">
        <ele>761</ele>
        <time>2020-09-27T11:34:29Z</time>
      </trkpt>
      <trkpt lat="43.94155" lon="6.23497">
        <ele>764.9</ele>
        <time>2020-09-27T11:34:50Z</time>
      </trkpt>
      <trkpt lat="43.94162" lon="6.23478">
        <ele>765.8</ele>
        <time>2020-09-27T11:35:03Z</time>
      </trkpt>
      <trkpt lat="43.94179" lon="6.23472">
        <ele>760.6</ele>
        <time>2020-09-27T11:35:17Z</time>
      </trkpt>
      <trkpt lat="43.94188" lon="6.23455">
        <ele>759.6</ele>
        <time>2020-09-27T11:35:30Z</time>
      </trkpt>
      <trkpt lat="43.94198" lon="6.23429">
        <ele>759.4</ele>
        <time>2020-09-27T11:35:48Z</time>
      </trkpt>
      <trkpt lat="43.94208" lon="6.23391">
        <ele>761.1</ele>
        <time>2020-09-27T11:36:13Z</time>
      </trkpt>
      <trkpt lat="43.94207" lon="6.2336">
        <ele>765.9</ele>
        <time>2020-09-27T11:36:33Z</time>
      </trkpt>
      <trkpt lat="43.94197" lon="6.23343">
        <ele>769.5</ele>
        <time>2020-09-27T11:36:46Z</time>
      </trkpt>
      <trkpt lat="43.94177" lon="6.23319">
        <ele>776.4</ele>
        <time>2020-09-27T11:37:09Z</time>
      </trkpt>
      <trkpt lat="43.9414" lon="6.23308">
        <ele>818.4</ele>
        <time>2020-09-27T11:37:55Z</time>
      </trkpt>
      <trkpt lat="43.94136" lon="6.23303">
        <ele>818.4</ele>
        <time>2020-09-27T11:37:59Z</time>
      </trkpt>
      <trkpt lat="43.94132" lon="6.23305">
        <ele>818.4</ele>
        <time>2020-09-27T11:38:02Z</time>
      </trkpt>
      <trkpt lat="43.94128" lon="6.233">
        <ele>818.3</ele>
        <time>2020-09-27T11:38:06Z</time>
      </trkpt>
      <trkpt lat="43.94125" lon="6.23294">
        <ele>818.3</ele>
        <time>2020-09-27T11:38:11Z</time>
      </trkpt>
      <trkpt lat="43.9412" lon="6.23289">
        <ele>818.3</ele>
        <time>2020-09-27T11:38:15Z</time>
      </trkpt>
      <trkpt lat="43.94116" lon="6.23285">
        <ele>818.2</ele>
        <time>2020-09-27T11:38:20Z</time>
      </trkpt>
      <trkpt lat="43.94111" lon="6.23282">
        <ele>818.2</ele>
        <time>2020-09-27T11:38:27Z</time>
      </trkpt>
      <trkpt lat="43.94107" lon="6.23277">
        <ele>818.2</ele>
        <time>2020-09-27T11:38:32Z</time>
      </trkpt>
      <trkpt lat="43.94104" lon="6.23272">
        <ele>818.2</ele>
        <time>2020-09-27T11:38:36Z</time>
      </trkpt>
      <trkpt lat="43.94101" lon="6.23266">
        <ele>818.2</ele>
        <time>2020-09-27T11:38:41Z</time>
      </trkpt>
      <trkpt lat="43.94099" lon="6.2326">
        <ele>818.2</ele>
        <time>2020-09-27T11:38:47Z</time>
      </trkpt>
      <trkpt lat="43.94094" lon="6.23258">
        <ele>818.2</ele>
        <time>2020-09-27T11:38:52Z</time>
      </trkpt>
      <trkpt lat="43.94093" lon="6.23252">
        <ele>818.2</ele>
        <time>2020-09-27T11:39:02Z</time>
      </trkpt>
      <trkpt lat="43.94096" lon="6.23246">
        <ele>818.3</ele>
        <time>2020-09-27T11:39:08Z</time>
      </trkpt>
      <trkpt lat="43.941" lon="6.23246">
        <ele>818.2</ele>
        <time>2020-09-27T11:39:13Z</time>
      </trkpt>
      <trkpt lat="43.94105" lon="6.23244">
        <ele>818.2</ele>
        <time>2020-09-27T11:39:18Z</time>
      </trkpt>
      <trkpt lat="43.9411" lon="6.23243">
        <ele>818.1</ele>
        <time>2020-09-27T11:39:25Z</time>
      </trkpt>
      <trkpt lat="43.94115" lon="6.23245">
        <ele>817.9</ele>
        <time>2020-09-27T11:39:31Z</time>
      </trkpt>
      <trkpt lat="43.9412" lon="6.23248">
        <ele>817.8</ele>
        <time>2020-09-27T11:39:38Z</time>
      </trkpt>
      <trkpt lat="43.94125" lon="6.23245">
        <ele>817.7</ele>
        <time>2020-09-27T11:39:42Z</time>
      </trkpt>
      <trkpt lat="43.94129" lon="6.23243">
        <ele>817.7</ele>
        <time>2020-09-27T11:39:45Z</time>
      </trkpt>
      <trkpt lat="43.94133" lon="6.23246">
        <ele>817.6</ele>
        <time>2020-09-27T11:39:49Z</time>
      </trkpt>
      <trkpt lat="43.94138" lon="6.23247">
        <ele>817.2</ele>
        <time>2020-09-27T11:39:54Z</time>
      </trkpt>
      <trkpt lat="43.94144" lon="6.23248">
        <ele>817</ele>
        <time>2020-09-27T11:39:58Z</time>
      </trkpt>
      <trkpt lat="43.94149" lon="6.23247">
        <ele>816.8</ele>
        <time>2020-09-27T11:40:03Z</time>
      </trkpt>
      <trkpt lat="43.94154" lon="6.23248">
        <ele>816.6</ele>
        <time>2020-09-27T11:40:09Z</time>
      </trkpt>
      <trkpt lat="43.94159" lon="6.23248">
        <ele>816.4</ele>
        <time>2020-09-27T11:40:15Z</time>
      </trkpt>
      <trkpt lat="43.94164" lon="6.23248">
        <ele>816.4</ele>
        <time>2020-09-27T11:40:20Z</time>
      </trkpt>
      <trkpt lat="43.94169" lon="6.23245">
        <ele>816.2</ele>
        <time>2020-09-27T11:40:24Z</time>
      </trkpt>
      <trkpt lat="43.94174" lon="6.23243">
        <ele>816.1</ele>
        <time>2020-09-27T11:40:28Z</time>
      </trkpt>
      <trkpt lat="43.94179" lon="6.23244">
        <ele>816</ele>
        <time>2020-09-27T11:40:34Z</time>
      </trkpt>
      <trkpt lat="43.94185" lon="6.23244">
        <ele>815.8</ele>
        <time>2020-09-27T11:40:40Z</time>
      </trkpt>
      <trkpt lat="43.9419" lon="6.23246">
        <ele>815.7</ele>
        <time>2020-09-27T11:40:44Z</time>
      </trkpt>
      <trkpt lat="43.94195" lon="6.23246">
        <ele>815.6</ele>
        <time>2020-09-27T11:40:48Z</time>
      </trkpt>
      <trkpt lat="43.942" lon="6.23245">
        <ele>815.4</ele>
        <time>2020-09-27T11:40:53Z</time>
      </trkpt>
      <trkpt lat="43.94205" lon="6.23245">
        <ele>815.2</ele>
        <time>2020-09-27T11:40:58Z</time>
      </trkpt>
      <trkpt lat="43.9421" lon="6.23245">
        <ele>815.1</ele>
        <time>2020-09-27T11:41:03Z</time>
      </trkpt>
      <trkpt lat="43.94215" lon="6.23245">
        <ele>815</ele>
        <time>2020-09-27T11:41:07Z</time>
      </trkpt>
      <trkpt lat="43.94219" lon="6.23245">
        <ele>814.9</ele>
        <time>2020-09-27T11:41:11Z</time>
      </trkpt>
      <trkpt lat="43.94225" lon="6.23246">
        <ele>814.9</ele>
        <time>2020-09-27T11:41:16Z</time>
      </trkpt>
      <trkpt lat="43.9423" lon="6.23245">
        <ele>814.8</ele>
        <time>2020-09-27T11:41:21Z</time>
      </trkpt>
      <trkpt lat="43.94234" lon="6.23244">
        <ele>814.8</ele>
        <time>2020-09-27T11:41:25Z</time>
      </trkpt>
      <trkpt lat="43.94239" lon="6.23244">
        <ele>814.7</ele>
        <time>2020-09-27T11:41:30Z</time>
      </trkpt>
      <trkpt lat="43.94244" lon="6.23242">
        <ele>814.6</ele>
        <time>2020-09-27T11:41:34Z</time>
      </trkpt>
      <trkpt lat="43.94248" lon="6.23242">
        <ele>814.6</ele>
        <time>2020-09-27T11:41:41Z</time>
      </trkpt>
      <trkpt lat="43.94253" lon="6.23242">
        <ele>814.5</ele>
        <time>2020-09-27T11:41:46Z</time>
      </trkpt>
      <trkpt lat="43.94258" lon="6.23243">
        <ele>814.5</ele>
        <time>2020-09-27T11:42:00Z</time>
      </trkpt>
      <trkpt lat="43.94263" lon="6.23242">
        <ele>814.5</ele>
        <time>2020-09-27T11:42:06Z</time>
      </trkpt>
      <trkpt lat="43.94268" lon="6.23242">
        <ele>814.5</ele>
        <time>2020-09-27T11:42:11Z</time>
      </trkpt>
      <trkpt lat="43.94274" lon="6.23242">
        <ele>814.3</ele>
        <time>2020-09-27T11:42:17Z</time>
      </trkpt>
      <trkpt lat="43.94279" lon="6.23244">
        <ele>814.2</ele>
        <time>2020-09-27T11:42:24Z</time>
      </trkpt>
      <trkpt lat="43.94284" lon="6.23244">
        <ele>814.2</ele>
        <time>2020-09-27T11:42:30Z</time>
      </trkpt>
      <trkpt lat="43.94288" lon="6.23246">
        <ele>814.1</ele>
        <time>2020-09-27T11:42:36Z</time>
      </trkpt>
      <trkpt lat="43.94293" lon="6.23247">
        <ele>814.1</ele>
        <time>2020-09-27T11:42:41Z</time>
      </trkpt>
      <trkpt lat="43.94298" lon="6.23248">
        <ele>814.1</ele>
        <time>2020-09-27T11:42:47Z</time>
      </trkpt>
      <trkpt lat="43.94302" lon="6.2325">
        <ele>814</ele>
        <time>2020-09-27T11:42:52Z</time>
      </trkpt>
      <trkpt lat="43.94307" lon="6.23251">
        <ele>814</ele>
        <time>2020-09-27T11:42:57Z</time>
      </trkpt>
      <trkpt lat="43.94312" lon="6.23252">
        <ele>814</ele>
        <time>2020-09-27T11:43:04Z</time>
      </trkpt>
      <trkpt lat="43.94316" lon="6.23254">
        <ele>814.1</ele>
        <time>2020-09-27T11:43:10Z</time>
      </trkpt>
      <trkpt lat="43.94321" lon="6.23253">
        <ele>814.1</ele>
        <time>2020-09-27T11:43:16Z</time>
      </trkpt>
      <trkpt lat="43.94326" lon="6.23253">
        <ele>814.2</ele>
        <time>2020-09-27T11:43:21Z</time>
      </trkpt>
      <trkpt lat="43.94331" lon="6.23253">
        <ele>814.3</ele>
        <time>2020-09-27T11:43:26Z</time>
      </trkpt>
      <trkpt lat="43.94336" lon="6.23252">
        <ele>814.3</ele>
        <time>2020-09-27T11:43:31Z</time>
      </trkpt>
      <trkpt lat="43.94341" lon="6.23249">
        <ele>814.3</ele>
        <time>2020-09-27T11:43:36Z</time>
      </trkpt>
      <trkpt lat="43.9434" lon="6.23242">
        <ele>814.4</ele>
        <time>2020-09-27T11:43:45Z</time>
      </trkpt>
      <trkpt lat="43.94337" lon="6.23237">
        <ele>814.4</ele>
        <time>2020-09-27T11:43:54Z</time>
      </trkpt>
      <trkpt lat="43.94335" lon="6.23231">
        <ele>814.4</ele>
        <time>2020-09-27T11:44:01Z</time>
      </trkpt>
      <trkpt lat="43.94332" lon="6.23226">
        <ele>814.4</ele>
        <time>2020-09-27T11:44:08Z</time>
      </trkpt>
      <trkpt lat="43.9433" lon="6.23219">
        <ele>814.4</ele>
        <time>2020-09-27T11:44:14Z</time>
      </trkpt>
      <trkpt lat="43.94331" lon="6.23212">
        <ele>814.4</ele>
        <time>2020-09-27T11:44:22Z</time>
      </trkpt>
      <trkpt lat="43.9433" lon="6.23205">
        <ele>814.4</ele>
        <time>2020-09-27T11:44:28Z</time>
      </trkpt>
      <trkpt lat="43.94327" lon="6.232">
        <ele>814.3</ele>
        <time>2020-09-27T11:44:39Z</time>
      </trkpt>
      <trkpt lat="43.9433" lon="6.23195">
        <ele>814.1</ele>
        <time>2020-09-27T11:45:19Z</time>
      </trkpt>
      <trkpt lat="43.94334" lon="6.23182">
        <ele>750</ele>
        <time>2020-09-27T11:48:12Z</time>
      </trkpt>
      <trkpt lat="43.94345" lon="6.23175">
        <ele>743.4</ele>
        <time>2020-09-27T11:48:52Z</time>
      </trkpt>
      <trkpt lat="43.94366" lon="6.23181">
        <ele>728.8</ele>
        <time>2020-09-27T11:50:06Z</time>
      </trkpt>
      <trkpt lat="43.94375" lon="6.23198">
        <ele>720.9</ele>
        <time>2020-09-27T11:50:58Z</time>
      </trkpt>
      <trkpt lat="43.94385" lon="6.23197">
        <ele>714.6</ele>
        <time>2020-09-27T11:51:31Z</time>
      </trkpt>
      <trkpt lat="43.94397" lon="6.23193">
        <ele>707.2</ele>
        <time>2020-09-27T11:52:11Z</time>
      </trkpt>
      <trkpt lat="43.944" lon="6.23183">
        <ele>705.3</ele>
        <time>2020-09-27T11:52:37Z</time>
      </trkpt>
      <trkpt lat="43.94401" lon="6.23157">
        <ele>709.7</ele>
        <time>2020-09-27T11:53:32Z</time>
      </trkpt>
      <trkpt lat="43.94405" lon="6.23147">
        <ele>711.2</ele>
        <time>2020-09-27T11:53:42Z</time>
      </trkpt>
      <trkpt lat="43.94411" lon="6.23146">
        <ele>760.6</ele>
        <time>2020-09-27T11:54:37Z</time>
      </trkpt>
      <trkpt lat="43.94415" lon="6.2315">
        <ele>758.3</ele>
        <time>2020-09-27T11:55:03Z</time>
      </trkpt>
      <trkpt lat="43.94428" lon="6.23151">
        <ele>746.7</ele>
        <time>2020-09-27T11:56:53Z</time>
      </trkpt>
      <trkpt lat="43.94437" lon="6.23154">
        <ele>697.1</ele>
        <time>2020-09-27T11:58:28Z</time>
      </trkpt>
      <trkpt lat="43.94444" lon="6.23157">
        <ele>695.5</ele>
        <time>2020-09-27T11:59:53Z</time>
      </trkpt>
      <trkpt lat="43.94449" lon="6.2316">
        <ele>727</ele>
        <time>2020-09-27T12:00:41Z</time>
      </trkpt>
      <trkpt lat="43.94457" lon="6.23176">
        <ele>717.2</ele>
        <time>2020-09-27T12:02:00Z</time>
      </trkpt>
      <trkpt lat="43.94461" lon="6.2318">
        <ele>715.4</ele>
        <time>2020-09-27T12:02:16Z</time>
      </trkpt>
      <trkpt lat="43.94463" lon="6.23175">
        <ele>713</ele>
        <time>2020-09-27T12:02:34Z</time>
      </trkpt>
      <trkpt lat="43.94465" lon="6.23168">
        <ele>711.4</ele>
        <time>2020-09-27T12:03:31Z</time>
      </trkpt>
      <trkpt lat="43.94469" lon="6.23162">
        <ele>711.3</ele>
        <time>2020-09-27T12:03:35Z</time>
      </trkpt>
      <trkpt lat="43.94471" lon="6.23157">
        <ele>711.1</ele>
        <time>2020-09-27T12:03:42Z</time>
      </trkpt>
      <trkpt lat="43.94473" lon="6.23156">
        <ele>704.7</ele>
        <time>2020-09-27T12:04:55Z</time>
      </trkpt>
      <trkpt lat="43.94479" lon="6.23151">
        <ele>693.1</ele>
        <time>2020-09-27T12:05:46Z</time>
      </trkpt>
      <trkpt lat="43.94484" lon="6.23143">
        <ele>695.3</ele>
        <time>2020-09-27T12:06:18Z</time>
      </trkpt>
      <trkpt lat="43.94494" lon="6.23136">
        <ele>696.4</ele>
        <time>2020-09-27T12:07:05Z</time>
      </trkpt>
      <trkpt lat="43.94501" lon="6.2314">
        <ele>694.1</ele>
        <time>2020-09-27T12:07:36Z</time>
      </trkpt>
      <trkpt lat="43.94504" lon="6.23147">
        <ele>691</ele>
        <time>2020-09-27T12:08:04Z</time>
      </trkpt>
      <trkpt lat="43.94512" lon="6.23152">
        <ele>687.3</ele>
        <time>2020-09-27T12:08:42Z</time>
      </trkpt>
      <trkpt lat="43.94532" lon="6.23154">
        <ele>682.1</ele>
        <time>2020-09-27T12:10:11Z</time>
      </trkpt>
      <trkpt lat="43.94539" lon="6.23158">
        <ele>684.1</ele>
        <time>2020-09-27T12:10:41Z</time>
      </trkpt>
      <trkpt lat="43.94541" lon="6.23159">
        <ele>678.5</ele>
        <time>2020-09-27T12:10:45Z</time>
      </trkpt>
      <trkpt lat="43.94546" lon="6.23158">
        <ele>677.8</ele>
        <time>2020-09-27T12:10:57Z</time>
      </trkpt>
      <trkpt lat="43.9455" lon="6.2316">
        <ele>676.1</ele>
        <time>2020-09-27T12:11:15Z</time>
      </trkpt>
      <trkpt lat="43.94556" lon="6.23162">
        <ele>673.8</ele>
        <time>2020-09-27T12:11:28Z</time>
      </trkpt>
      <trkpt lat="43.94553" lon="6.23167">
        <ele>672.9</ele>
        <time>2020-09-27T12:11:49Z</time>
      </trkpt>
      <trkpt lat="43.94546" lon="6.23168">
        <ele>674.6</ele>
        <time>2020-09-27T12:11:57Z</time>
      </trkpt>
      <trkpt lat="43.94539" lon="6.23166">
        <ele>677.4</ele>
        <time>2020-09-27T12:12:04Z</time>
      </trkpt>
      <trkpt lat="43.94534" lon="6.23168">
        <ele>676.3</ele>
        <time>2020-09-27T12:12:16Z</time>
      </trkpt>
      <trkpt lat="43.94534" lon="6.23174">
        <ele>675.9</ele>
        <time>2020-09-27T12:12:25Z</time>
      </trkpt>
      <trkpt lat="43.94534" lon="6.23181">
        <ele>675.6</ele>
        <time>2020-09-27T12:12:31Z</time>
      </trkpt>
      <trkpt lat="43.94539" lon="6.23184">
        <ele>674</ele>
        <time>2020-09-27T12:12:47Z</time>
      </trkpt>
      <trkpt lat="43.94544" lon="6.23184">
        <ele>674</ele>
        <time>2020-09-27T12:12:55Z</time>
      </trkpt>
      <trkpt lat="43.94548" lon="6.23192">
        <ele>673</ele>
        <time>2020-09-27T12:13:07Z</time>
      </trkpt>
      <trkpt lat="43.94554" lon="6.23194">
        <ele>671</ele>
        <time>2020-09-27T12:13:28Z</time>
      </trkpt>
      <trkpt lat="43.94567" lon="6.23198">
        <ele>670</ele>
        <time>2020-09-27T12:14:13Z</time>
      </trkpt>
      <trkpt lat="43.9458" lon="6.23205">
        <ele>665.3</ele>
        <time>2020-09-27T12:15:05Z</time>
      </trkpt>
      <trkpt lat="43.9459" lon="6.23207">
        <ele>662</ele>
        <time>2020-09-27T12:15:41Z</time>
      </trkpt>
      <trkpt lat="43.94599" lon="6.23212">
        <ele>659.2</ele>
        <time>2020-09-27T12:16:15Z</time>
      </trkpt>
      <trkpt lat="43.94615" lon="6.23219">
        <ele>654.6</ele>
        <time>2020-09-27T12:17:13Z</time>
      </trkpt>
      <trkpt lat="43.94626" lon="6.2322">
        <ele>651.5</ele>
        <time>2020-09-27T12:17:40Z</time>
      </trkpt>
      <trkpt lat="43.94635" lon="6.2322">
        <ele>648.9</ele>
        <time>2020-09-27T12:18:06Z</time>
      </trkpt>
      <trkpt lat="43.94644" lon="6.23221">
        <ele>646.5</ele>
        <time>2020-09-27T12:18:22Z</time>
      </trkpt>
      <trkpt lat="43.94653" lon="6.23219">
        <ele>643.8</ele>
        <time>2020-09-27T12:18:35Z</time>
      </trkpt>
      <trkpt lat="43.94665" lon="6.2322">
        <ele>640.5</ele>
        <time>2020-09-27T12:18:51Z</time>
      </trkpt>
      <trkpt lat="43.94682" lon="6.2322">
        <ele>645.9</ele>
        <time>2020-09-27T12:19:42Z</time>
      </trkpt>
      <trkpt lat="43.94698" lon="6.2322">
        <ele>651.8</ele>
        <time>2020-09-27T12:20:26Z</time>
      </trkpt>
      <trkpt lat="43.94714" lon="6.23214">
        <ele>656.4</ele>
        <time>2020-09-27T12:21:13Z</time>
      </trkpt>
      <trkpt lat="43.94722" lon="6.23213">
        <ele>658.9</ele>
        <time>2020-09-27T12:21:33Z</time>
      </trkpt>
      <trkpt lat="43.94727" lon="6.23203">
        <ele>657.7</ele>
        <time>2020-09-27T12:21:58Z</time>
      </trkpt>
      <trkpt lat="43.94732" lon="6.23192">
        <ele>642.5</ele>
        <time>2020-09-27T12:22:43Z</time>
      </trkpt>
      <trkpt lat="43.94735" lon="6.23188">
        <ele>656</ele>
        <time>2020-09-27T12:22:47Z</time>
      </trkpt>
      <trkpt lat="43.94738" lon="6.23184">
        <ele>642.5</ele>
        <time>2020-09-27T12:22:52Z</time>
      </trkpt>
      <trkpt lat="43.94743" lon="6.23181">
        <ele>642.7</ele>
        <time>2020-09-27T12:23:02Z</time>
      </trkpt>
      <trkpt lat="43.94745" lon="6.23172">
        <ele>653.6</ele>
        <time>2020-09-27T12:23:12Z</time>
      </trkpt>
      <trkpt lat="43.94749" lon="6.23159">
        <ele>651.8</ele>
        <time>2020-09-27T12:23:21Z</time>
      </trkpt>
      <trkpt lat="43.94749" lon="6.23151">
        <ele>651.2</ele>
        <time>2020-09-27T12:23:26Z</time>
      </trkpt>
      <trkpt lat="43.94753" lon="6.23138">
        <ele>651.2</ele>
        <time>2020-09-27T12:23:34Z</time>
      </trkpt>
      <trkpt lat="43.94755" lon="6.23129">
        <ele>651.6</ele>
        <time>2020-09-27T12:23:40Z</time>
      </trkpt>
      <trkpt lat="43.94758" lon="6.23116">
        <ele>651.2</ele>
        <time>2020-09-27T12:23:49Z</time>
      </trkpt>
      <trkpt lat="43.94762" lon="6.23098">
        <ele>642.8</ele>
        <time>2020-09-27T12:24:03Z</time>
      </trkpt>
      <trkpt lat="43.94761" lon="6.2309">
        <ele>642.9</ele>
        <time>2020-09-27T12:24:07Z</time>
      </trkpt>
      <trkpt lat="43.9476" lon="6.23084">
        <ele>642.9</ele>
        <time>2020-09-27T12:24:10Z</time>
      </trkpt>
      <trkpt lat="43.94757" lon="6.23078">
        <ele>642.9</ele>
        <time>2020-09-27T12:24:15Z</time>
      </trkpt>
      <trkpt lat="43.94753" lon="6.23073">
        <ele>642.9</ele>
        <time>2020-09-27T12:24:18Z</time>
      </trkpt>
      <trkpt lat="43.94751" lon="6.23066">
        <ele>642.9</ele>
        <time>2020-09-27T12:24:22Z</time>
      </trkpt>
      <trkpt lat="43.94747" lon="6.23062">
        <ele>642.9</ele>
        <time>2020-09-27T12:24:26Z</time>
      </trkpt>
      <trkpt lat="43.94746" lon="6.23055">
        <ele>642.9</ele>
        <time>2020-09-27T12:24:32Z</time>
      </trkpt>
      <trkpt lat="43.94748" lon="6.2305">
        <ele>642.8</ele>
        <time>2020-09-27T12:24:41Z</time>
      </trkpt>
      <trkpt lat="43.94747" lon="6.23043">
        <ele>642.7</ele>
        <time>2020-09-27T12:24:46Z</time>
      </trkpt>
      <trkpt lat="43.94742" lon="6.23039">
        <ele>642.4</ele>
        <time>2020-09-27T12:24:50Z</time>
      </trkpt>
      <trkpt lat="43.94742" lon="6.23032">
        <ele>642</ele>
        <time>2020-09-27T12:24:55Z</time>
      </trkpt>
      <trkpt lat="43.94739" lon="6.23021">
        <ele>641.7</ele>
        <time>2020-09-27T12:25:01Z</time>
      </trkpt>
      <trkpt lat="43.9474" lon="6.23014">
        <ele>641.3</ele>
        <time>2020-09-27T12:25:05Z</time>
      </trkpt>
      <trkpt lat="43.94741" lon="6.23007">
        <ele>640.8</ele>
        <time>2020-09-27T12:25:11Z</time>
      </trkpt>
      <trkpt lat="43.94742" lon="6.23">
        <ele>640.4</ele>
        <time>2020-09-27T12:25:17Z</time>
      </trkpt>
      <trkpt lat="43.94743" lon="6.22993">
        <ele>640</ele>
        <time>2020-09-27T12:25:23Z</time>
      </trkpt>
      <trkpt lat="43.94746" lon="6.22986">
        <ele>639.7</ele>
        <time>2020-09-27T12:25:28Z</time>
      </trkpt>
      <trkpt lat="43.94749" lon="6.22979">
        <ele>639.4</ele>
        <time>2020-09-27T12:25:32Z</time>
      </trkpt>
      <trkpt lat="43.94751" lon="6.22973">
        <ele>639.2</ele>
        <time>2020-09-27T12:25:35Z</time>
      </trkpt>
      <trkpt lat="43.94753" lon="6.22967">
        <ele>639</ele>
        <time>2020-09-27T12:25:39Z</time>
      </trkpt>
      <trkpt lat="43.94756" lon="6.22962">
        <ele>638.7</ele>
        <time>2020-09-27T12:25:42Z</time>
      </trkpt>
      <trkpt lat="43.94758" lon="6.22956">
        <ele>638.2</ele>
        <time>2020-09-27T12:25:48Z</time>
      </trkpt>
      <trkpt lat="43.94758" lon="6.22949">
        <ele>637.8</ele>
        <time>2020-09-27T12:25:53Z</time>
      </trkpt>
      <trkpt lat="43.9476" lon="6.22942">
        <ele>637.3</ele>
        <time>2020-09-27T12:25:59Z</time>
      </trkpt>
      <trkpt lat="43.94763" lon="6.22936">
        <ele>636.9</ele>
        <time>2020-09-27T12:26:03Z</time>
      </trkpt>
      <trkpt lat="43.94766" lon="6.2293">
        <ele>636.6</ele>
        <time>2020-09-27T12:26:07Z</time>
      </trkpt>
      <trkpt lat="43.94769" lon="6.22925">
        <ele>636.4</ele>
        <time>2020-09-27T12:26:11Z</time>
      </trkpt>
      <trkpt lat="43.94769" lon="6.22918">
        <ele>636.1</ele>
        <time>2020-09-27T12:26:16Z</time>
      </trkpt>
      <trkpt lat="43.94771" lon="6.22912">
        <ele>635.9</ele>
        <time>2020-09-27T12:26:20Z</time>
      </trkpt>
      <trkpt lat="43.94772" lon="6.22904">
        <ele>635.7</ele>
        <time>2020-09-27T12:26:25Z</time>
      </trkpt>
      <trkpt lat="43.94774" lon="6.22898">
        <ele>635.5</ele>
        <time>2020-09-27T12:26:29Z</time>
      </trkpt>
      <trkpt lat="43.94775" lon="6.22892">
        <ele>635</ele>
        <time>2020-09-27T12:26:34Z</time>
      </trkpt>
      <trkpt lat="43.94777" lon="6.22886">
        <ele>634.5</ele>
        <time>2020-09-27T12:26:41Z</time>
      </trkpt>
      <trkpt lat="43.9478" lon="6.2288">
        <ele>634.2</ele>
        <time>2020-09-27T12:26:45Z</time>
      </trkpt>
      <trkpt lat="43.94783" lon="6.22874">
        <ele>633.9</ele>
        <time>2020-09-27T12:26:50Z</time>
      </trkpt>
      <trkpt lat="43.94785" lon="6.22868">
        <ele>633.7</ele>
        <time>2020-09-27T12:26:54Z</time>
      </trkpt>
      <trkpt lat="43.94788" lon="6.22862">
        <ele>633.4</ele>
        <time>2020-09-27T12:27:02Z</time>
      </trkpt>
      <trkpt lat="43.94789" lon="6.22855">
        <ele>633.1</ele>
        <time>2020-09-27T12:27:12Z</time>
      </trkpt>
      <trkpt lat="43.94789" lon="6.22849">
        <ele>632.9</ele>
        <time>2020-09-27T12:27:19Z</time>
      </trkpt>
      <trkpt lat="43.94791" lon="6.22842">
        <ele>632.7</ele>
        <time>2020-09-27T12:27:25Z</time>
      </trkpt>
      <trkpt lat="43.94791" lon="6.22835">
        <ele>632.4</ele>
        <time>2020-09-27T12:27:31Z</time>
      </trkpt>
      <trkpt lat="43.94793" lon="6.22829">
        <ele>632.2</ele>
        <time>2020-09-27T12:27:35Z</time>
      </trkpt>
      <trkpt lat="43.94793" lon="6.22822">
        <ele>632</ele>
        <time>2020-09-27T12:27:42Z</time>
      </trkpt>
      <trkpt lat="43.94792" lon="6.22815">
        <ele>631.9</ele>
        <time>2020-09-27T12:27:48Z</time>
      </trkpt>
      <trkpt lat="43.9479" lon="6.22808">
        <ele>631.6</ele>
        <time>2020-09-27T12:27:54Z</time>
      </trkpt>
      <trkpt lat="43.94787" lon="6.22801">
        <ele>631.2</ele>
        <time>2020-09-27T12:27:59Z</time>
      </trkpt>
      <trkpt lat="43.94784" lon="6.22795">
        <ele>631</ele>
        <time>2020-09-27T12:28:03Z</time>
      </trkpt>
      <trkpt lat="43.9478" lon="6.22791">
        <ele>630.8</ele>
        <time>2020-09-27T12:28:07Z</time>
      </trkpt>
      <trkpt lat="43.94776" lon="6.22786">
        <ele>630.6</ele>
        <time>2020-09-27T12:28:12Z</time>
      </trkpt>
      <trkpt lat="43.94771" lon="6.22784">
        <ele>630.4</ele>
        <time>2020-09-27T12:28:18Z</time>
      </trkpt>
      <trkpt lat="43.94767" lon="6.22781">
        <ele>630</ele>
        <time>2020-09-27T12:28:24Z</time>
      </trkpt>
      <trkpt lat="43.94764" lon="6.22775">
        <ele>629.7</ele>
        <time>2020-09-27T12:28:32Z</time>
      </trkpt>
      <trkpt lat="43.94758" lon="6.22776">
        <ele>626.3</ele>
        <time>2020-09-27T12:28:50Z</time>
      </trkpt>
      <trkpt lat="43.94752" lon="6.2277">
        <ele>624.3</ele>
        <time>2020-09-27T12:29:12Z</time>
      </trkpt>
      <trkpt lat="43.94747" lon="6.22768">
        <ele>623.5</ele>
        <time>2020-09-27T12:29:27Z</time>
      </trkpt>
      <trkpt lat="43.94739" lon="6.22754">
        <ele>623.4</ele>
        <time>2020-09-27T12:30:03Z</time>
      </trkpt>
      <trkpt lat="43.94726" lon="6.22739">
        <ele>628.5</ele>
        <time>2020-09-27T12:30:54Z</time>
      </trkpt>
      <trkpt lat="43.94724" lon="6.22733">
        <ele>628.5</ele>
        <time>2020-09-27T12:31:00Z</time>
      </trkpt>
      <trkpt lat="43.94724" lon="6.22727">
        <ele>628.3</ele>
        <time>2020-09-27T12:31:06Z</time>
      </trkpt>
      <trkpt lat="43.94723" lon="6.22719">
        <ele>628.3</ele>
        <time>2020-09-27T12:31:12Z</time>
      </trkpt>
      <trkpt lat="43.9472" lon="6.22713">
        <ele>628.3</ele>
        <time>2020-09-27T12:31:16Z</time>
      </trkpt>
      <trkpt lat="43.9472" lon="6.22705">
        <ele>628.2</ele>
        <time>2020-09-27T12:31:21Z</time>
      </trkpt>
      <trkpt lat="43.94719" lon="6.22698">
        <ele>628.1</ele>
        <time>2020-09-27T12:31:25Z</time>
      </trkpt>
      <trkpt lat="43.94718" lon="6.22691">
        <ele>628</ele>
        <time>2020-09-27T12:31:30Z</time>
      </trkpt>
      <trkpt lat="43.94716" lon="6.22685">
        <ele>628</ele>
        <time>2020-09-27T12:31:35Z</time>
      </trkpt>
      <trkpt lat="43.94712" lon="6.2268">
        <ele>627</ele>
        <time>2020-09-27T12:31:51Z</time>
      </trkpt>
      <trkpt lat="43.94709" lon="6.22676">
        <ele>627</ele>
        <time>2020-09-27T12:32:00Z</time>
      </trkpt>
      <trkpt lat="43.94707" lon="6.2267">
        <ele>626.7</ele>
        <time>2020-09-27T12:32:09Z</time>
      </trkpt>
      <trkpt lat="43.94702" lon="6.22667">
        <ele>625.8</ele>
        <time>2020-09-27T12:32:56Z</time>
      </trkpt>
      <trkpt lat="43.947" lon="6.22662">
        <ele>625.8</ele>
        <time>2020-09-27T12:33:32Z</time>
      </trkpt>
      <trkpt lat="43.94698" lon="6.22655">
        <ele>625.4</ele>
        <time>2020-09-27T12:33:40Z</time>
      </trkpt>
      <trkpt lat="43.94695" lon="6.2265">
        <ele>625.2</ele>
        <time>2020-09-27T12:33:48Z</time>
      </trkpt>
      <trkpt lat="43.94694" lon="6.22643">
        <ele>625.1</ele>
        <time>2020-09-27T12:33:55Z</time>
      </trkpt>
      <trkpt lat="43.9469" lon="6.22639">
        <ele>625</ele>
        <time>2020-09-27T12:34:01Z</time>
      </trkpt>
      <trkpt lat="43.94688" lon="6.22633">
        <ele>625</ele>
        <time>2020-09-27T12:34:08Z</time>
      </trkpt>
      <trkpt lat="43.94687" lon="6.22626">
        <ele>624.9</ele>
        <time>2020-09-27T12:34:14Z</time>
      </trkpt>
      <trkpt lat="43.94689" lon="6.22619">
        <ele>624.9</ele>
        <time>2020-09-27T12:34:20Z</time>
      </trkpt>
      <trkpt lat="43.94691" lon="6.22612">
        <ele>624.8</ele>
        <time>2020-09-27T12:34:32Z</time>
      </trkpt>
      <trkpt lat="43.94693" lon="6.22606">
        <ele>624.8</ele>
        <time>2020-09-27T12:34:38Z</time>
      </trkpt>
      <trkpt lat="43.94698" lon="6.22603">
        <ele>624.8</ele>
        <time>2020-09-27T12:34:44Z</time>
      </trkpt>
      <trkpt lat="43.94699" lon="6.22596">
        <ele>611</ele>
        <time>2020-09-27T12:34:54Z</time>
      </trkpt>
      <trkpt lat="43.94701" lon="6.2259">
        <ele>610.7</ele>
        <time>2020-09-27T12:34:58Z</time>
      </trkpt>
      <trkpt lat="43.94703" lon="6.22587">
        <ele>610.5</ele>
        <time>2020-09-27T12:35:10Z</time>
      </trkpt>
      <trkpt lat="43.94706" lon="6.22581">
        <ele>610.4</ele>
        <time>2020-09-27T12:35:25Z</time>
      </trkpt>
      <trkpt lat="43.94708" lon="6.22577">
        <ele>624.2</ele>
        <time>2020-09-27T12:35:30Z</time>
      </trkpt>
      <trkpt lat="43.9471" lon="6.22571">
        <ele>624.1</ele>
        <time>2020-09-27T12:35:37Z</time>
      </trkpt>
      <trkpt lat="43.94715" lon="6.22564">
        <ele>624</ele>
        <time>2020-09-27T12:35:42Z</time>
      </trkpt>
      <trkpt lat="43.94733" lon="6.22551">
        <ele>624.6</ele>
        <time>2020-09-27T12:42:16Z</time>
      </trkpt>
      <trkpt lat="43.94742" lon="6.22556">
        <ele>623.8</ele>
        <time>2020-09-27T12:43:11Z</time>
      </trkpt>
      <trkpt lat="43.94747" lon="6.22557">
        <ele>623.6</ele>
        <time>2020-09-27T12:43:15Z</time>
      </trkpt>
      <trkpt lat="43.94752" lon="6.22557">
        <ele>623.1</ele>
        <time>2020-09-27T12:43:31Z</time>
      </trkpt>
      <trkpt lat="43.94753" lon="6.22558">
        <ele>622.9</ele>
        <time>2020-09-27T12:45:38Z</time>
      </trkpt>
      <trkpt lat="43.94757" lon="6.22553">
        <ele>622.9</ele>
        <time>2020-09-27T12:45:43Z</time>
      </trkpt>
      <trkpt lat="43.9476" lon="6.22548">
        <ele>622.8</ele>
        <time>2020-09-27T12:45:50Z</time>
      </trkpt>
      <trkpt lat="43.94764" lon="6.22543">
        <ele>622.7</ele>
        <time>2020-09-27T12:45:56Z</time>
      </trkpt>
      <trkpt lat="43.94767" lon="6.22538">
        <ele>622.5</ele>
        <time>2020-09-27T12:46:03Z</time>
      </trkpt>
      <trkpt lat="43.94771" lon="6.22534">
        <ele>622.4</ele>
        <time>2020-09-27T12:46:07Z</time>
      </trkpt>
      <trkpt lat="43.94775" lon="6.22529">
        <ele>622.3</ele>
        <time>2020-09-27T12:46:12Z</time>
      </trkpt>
      <trkpt lat="43.94779" lon="6.22525">
        <ele>622.3</ele>
        <time>2020-09-27T12:46:15Z</time>
      </trkpt>
      <trkpt lat="43.94781" lon="6.22519">
        <ele>622.2</ele>
        <time>2020-09-27T12:46:21Z</time>
      </trkpt>
      <trkpt lat="43.94785" lon="6.22512">
        <ele>622.2</ele>
        <time>2020-09-27T12:46:26Z</time>
      </trkpt>
      <trkpt lat="43.94787" lon="6.22505">
        <ele>622.1</ele>
        <time>2020-09-27T12:46:31Z</time>
      </trkpt>
      <trkpt lat="43.94788" lon="6.22499">
        <ele>622.1</ele>
        <time>2020-09-27T12:46:36Z</time>
      </trkpt>
      <trkpt lat="43.94789" lon="6.22492">
        <ele>622</ele>
        <time>2020-09-27T12:46:42Z</time>
      </trkpt>
      <trkpt lat="43.94791" lon="6.22485">
        <ele>621.7</ele>
        <time>2020-09-27T12:46:47Z</time>
      </trkpt>
      <trkpt lat="43.94794" lon="6.2248">
        <ele>621.5</ele>
        <time>2020-09-27T12:46:51Z</time>
      </trkpt>
      <trkpt lat="43.94795" lon="6.22473">
        <ele>621.2</ele>
        <time>2020-09-27T12:46:58Z</time>
      </trkpt>
      <trkpt lat="43.94797" lon="6.22467">
        <ele>621</ele>
        <time>2020-09-27T12:47:02Z</time>
      </trkpt>
      <trkpt lat="43.94799" lon="6.22461">
        <ele>620.7</ele>
        <time>2020-09-27T12:47:07Z</time>
      </trkpt>
      <trkpt lat="43.94801" lon="6.22455">
        <ele>620.6</ele>
        <time>2020-09-27T12:47:11Z</time>
      </trkpt>
      <trkpt lat="43.948" lon="6.22448">
        <ele>620.5</ele>
        <time>2020-09-27T12:47:16Z</time>
      </trkpt>
      <trkpt lat="43.94801" lon="6.22441">
        <ele>620.3</ele>
        <time>2020-09-27T12:47:23Z</time>
      </trkpt>
      <trkpt lat="43.94803" lon="6.22435">
        <ele>620.3</ele>
        <time>2020-09-27T12:47:27Z</time>
      </trkpt>
      <trkpt lat="43.94805" lon="6.22428">
        <ele>620.2</ele>
        <time>2020-09-27T12:47:31Z</time>
      </trkpt>
      <trkpt lat="43.94807" lon="6.22421">
        <ele>620.2</ele>
        <time>2020-09-27T12:47:36Z</time>
      </trkpt>
      <trkpt lat="43.9481" lon="6.22414">
        <ele>620.2</ele>
        <time>2020-09-27T12:47:40Z</time>
      </trkpt>
      <trkpt lat="43.9481" lon="6.22407">
        <ele>620.2</ele>
        <time>2020-09-27T12:47:45Z</time>
      </trkpt>
      <trkpt lat="43.94811" lon="6.224">
        <ele>620.2</ele>
        <time>2020-09-27T12:47:50Z</time>
      </trkpt>
      <trkpt lat="43.94811" lon="6.22394">
        <ele>620.2</ele>
        <time>2020-09-27T12:47:54Z</time>
      </trkpt>
      <trkpt lat="43.94812" lon="6.22386">
        <ele>620.1</ele>
        <time>2020-09-27T12:47:58Z</time>
      </trkpt>
      <trkpt lat="43.94812" lon="6.22379">
        <ele>620</ele>
        <time>2020-09-27T12:48:02Z</time>
      </trkpt>
      <trkpt lat="43.94812" lon="6.22372">
        <ele>619.9</ele>
        <time>2020-09-27T12:48:07Z</time>
      </trkpt>
      <trkpt lat="43.94812" lon="6.22365">
        <ele>619.8</ele>
        <time>2020-09-27T12:48:12Z</time>
      </trkpt>
      <trkpt lat="43.9481" lon="6.22359">
        <ele>619.8</ele>
        <time>2020-09-27T12:48:16Z</time>
      </trkpt>
      <trkpt lat="43.94809" lon="6.22351">
        <ele>619.9</ele>
        <time>2020-09-27T12:48:21Z</time>
      </trkpt>
      <trkpt lat="43.94807" lon="6.22345">
        <ele>620</ele>
        <time>2020-09-27T12:48:26Z</time>
      </trkpt>
      <trkpt lat="43.94805" lon="6.22338">
        <ele>620.1</ele>
        <time>2020-09-27T12:48:33Z</time>
      </trkpt>
      <trkpt lat="43.94804" lon="6.22331">
        <ele>620.1</ele>
        <time>2020-09-27T12:48:38Z</time>
      </trkpt>
      <trkpt lat="43.94803" lon="6.22325">
        <ele>620.2</ele>
        <time>2020-09-27T12:48:43Z</time>
      </trkpt>
      <trkpt lat="43.94804" lon="6.22319">
        <ele>620.2</ele>
        <time>2020-09-27T12:48:48Z</time>
      </trkpt>
      <trkpt lat="43.94807" lon="6.22312">
        <ele>620.3</ele>
        <time>2020-09-27T12:48:53Z</time>
      </trkpt>
      <trkpt lat="43.94806" lon="6.22305">
        <ele>620.6</ele>
        <time>2020-09-27T12:48:58Z</time>
      </trkpt>
      <trkpt lat="43.94807" lon="6.22299">
        <ele>620.8</ele>
        <time>2020-09-27T12:49:03Z</time>
      </trkpt>
      <trkpt lat="43.94807" lon="6.22293">
        <ele>621</ele>
        <time>2020-09-27T12:49:08Z</time>
      </trkpt>
      <trkpt lat="43.94806" lon="6.22286">
        <ele>621.3</ele>
        <time>2020-09-27T12:49:13Z</time>
      </trkpt>
      <trkpt lat="43.94807" lon="6.2228">
        <ele>621.5</ele>
        <time>2020-09-27T12:49:18Z</time>
      </trkpt>
      <trkpt lat="43.94807" lon="6.22272">
        <ele>622.1</ele>
        <time>2020-09-27T12:49:24Z</time>
      </trkpt>
      <trkpt lat="43.94808" lon="6.22265">
        <ele>622.5</ele>
        <time>2020-09-27T12:49:30Z</time>
      </trkpt>
      <trkpt lat="43.94809" lon="6.22258">
        <ele>623</ele>
        <time>2020-09-27T12:49:36Z</time>
      </trkpt>
      <trkpt lat="43.94811" lon="6.22252">
        <ele>623.3</ele>
        <time>2020-09-27T12:49:41Z</time>
      </trkpt>
      <trkpt lat="43.94814" lon="6.22245">
        <ele>623.7</ele>
        <time>2020-09-27T12:49:46Z</time>
      </trkpt>
      <trkpt lat="43.94817" lon="6.2224">
        <ele>624.1</ele>
        <time>2020-09-27T12:49:51Z</time>
      </trkpt>
      <trkpt lat="43.9482" lon="6.22235">
        <ele>624.6</ele>
        <time>2020-09-27T12:49:56Z</time>
      </trkpt>
      <trkpt lat="43.94823" lon="6.2223">
        <ele>625.1</ele>
        <time>2020-09-27T12:50:02Z</time>
      </trkpt>
      <trkpt lat="43.94826" lon="6.22225">
        <ele>625.5</ele>
        <time>2020-09-27T12:50:07Z</time>
      </trkpt>
      <trkpt lat="43.9483" lon="6.22221">
        <ele>625.9</ele>
        <time>2020-09-27T12:50:13Z</time>
      </trkpt>
      <trkpt lat="43.94831" lon="6.22214">
        <ele>626.4</ele>
        <time>2020-09-27T12:50:19Z</time>
      </trkpt>
      <trkpt lat="43.94833" lon="6.22208">
        <ele>626.7</ele>
        <time>2020-09-27T12:50:25Z</time>
      </trkpt>
      <trkpt lat="43.94836" lon="6.22203">
        <ele>627.1</ele>
        <time>2020-09-27T12:50:31Z</time>
      </trkpt>
      <trkpt lat="43.94841" lon="6.22201">
        <ele>627.5</ele>
        <time>2020-09-27T12:50:37Z</time>
      </trkpt>
      <trkpt lat="43.94846" lon="6.22199">
        <ele>627.7</ele>
        <time>2020-09-27T12:50:42Z</time>
      </trkpt>
      <trkpt lat="43.94851" lon="6.22198">
        <ele>628</ele>
        <time>2020-09-27T12:50:50Z</time>
      </trkpt>
      <trkpt lat="43.94856" lon="6.22196">
        <ele>628.4</ele>
        <time>2020-09-27T12:50:57Z</time>
      </trkpt>
      <trkpt lat="43.9486" lon="6.22194">
        <ele>628.7</ele>
        <time>2020-09-27T12:51:03Z</time>
      </trkpt>
      <trkpt lat="43.94865" lon="6.22193">
        <ele>629.3</ele>
        <time>2020-09-27T12:51:10Z</time>
      </trkpt>
      <trkpt lat="43.9487" lon="6.22192">
        <ele>629.7</ele>
        <time>2020-09-27T12:51:16Z</time>
      </trkpt>
      <trkpt lat="43.94875" lon="6.22191">
        <ele>630.1</ele>
        <time>2020-09-27T12:51:22Z</time>
      </trkpt>
      <trkpt lat="43.94879" lon="6.2219">
        <ele>630.3</ele>
        <time>2020-09-27T12:51:29Z</time>
      </trkpt>
      <trkpt lat="43.94884" lon="6.2219">
        <ele>630.5</ele>
        <time>2020-09-27T12:51:36Z</time>
      </trkpt>
      <trkpt lat="43.94888" lon="6.22191">
        <ele>631.1</ele>
        <time>2020-09-27T12:52:30Z</time>
      </trkpt>
    </trkseg>
  </trk>
</gpx>